<?xml version="1.0" encoding="UTF-8" standalone="no" ?>
<gpx xmlns="http://www.topografix.com/GPX/1/1" xmlns:xsi="http://www.w3.org/2001/XMLSchema-instance" xsi:schemaLocation="http://www.topografix.com/GPX/1/1 http://www.topografix.com/GPX/1/1/gpx.xsd" version="1.1" creator="VisuGPX - https://www.visugpx.com">
  <metadata>
    <name>Mouthier-Haute-Pierre - Le Moine de la Vallée - Source de la Loue </name>
    <desc><![CDATA[Randonnée pédestre effectuée le 18 avril 2019]]></desc>
  </metadata>
  <trk>
    <name><![CDATA[20190419093044-y6JWL]]></name>
    <trkseg>
      <trkpt lat="47.04026" lon="6.27496">
        <ele>434</ele>
        <time>2019-04-18T07:43:30Z</time>
      </trkpt>
      <trkpt lat="47.04026" lon="6.27496">
        <ele>434</ele>
        <time>2019-04-18T07:43:31Z</time>
      </trkpt>
      <trkpt lat="47.04019" lon="6.27492">
        <ele>435</ele>
        <time>2019-04-18T07:45:45Z</time>
      </trkpt>
      <trkpt lat="47.04007" lon="6.27498">
        <ele>438</ele>
        <time>2019-04-18T07:46:27Z</time>
      </trkpt>
      <trkpt lat="47.04002" lon="6.27501">
        <ele>439</ele>
        <time>2019-04-18T07:46:32Z</time>
      </trkpt>
      <trkpt lat="47.03998" lon="6.27508">
        <ele>437</ele>
        <time>2019-04-18T07:48:07Z</time>
      </trkpt>
      <trkpt lat="47.03994" lon="6.2751">
        <ele>435</ele>
        <time>2019-04-18T07:48:12Z</time>
      </trkpt>
      <trkpt lat="47.03983" lon="6.27516">
        <ele>435</ele>
        <time>2019-04-18T07:48:26Z</time>
      </trkpt>
      <trkpt lat="47.03976" lon="6.27517">
        <ele>435</ele>
        <time>2019-04-18T07:48:34Z</time>
      </trkpt>
      <trkpt lat="47.03971" lon="6.27516">
        <ele>434</ele>
        <time>2019-04-18T07:48:38Z</time>
      </trkpt>
      <trkpt lat="47.03966" lon="6.27517">
        <ele>434</ele>
        <time>2019-04-18T07:48:42Z</time>
      </trkpt>
      <trkpt lat="47.03961" lon="6.27519">
        <ele>433</ele>
        <time>2019-04-18T07:48:46Z</time>
      </trkpt>
      <trkpt lat="47.03956" lon="6.2752">
        <ele>433</ele>
        <time>2019-04-18T07:48:50Z</time>
      </trkpt>
      <trkpt lat="47.03952" lon="6.27521">
        <ele>433</ele>
        <time>2019-04-18T07:48:54Z</time>
      </trkpt>
      <trkpt lat="47.03936" lon="6.27517">
        <ele>433</ele>
        <time>2019-04-18T07:49:10Z</time>
      </trkpt>
      <trkpt lat="47.03923" lon="6.27505">
        <ele>432</ele>
        <time>2019-04-18T07:49:27Z</time>
      </trkpt>
      <trkpt lat="47.0391" lon="6.27514">
        <ele>431</ele>
        <time>2019-04-18T07:49:45Z</time>
      </trkpt>
      <trkpt lat="47.03882" lon="6.27537">
        <ele>430</ele>
        <time>2019-04-18T07:50:12Z</time>
      </trkpt>
      <trkpt lat="47.03875" lon="6.27529">
        <ele>427</ele>
        <time>2019-04-18T07:50:35Z</time>
      </trkpt>
      <trkpt lat="47.03869" lon="6.27502">
        <ele>426</ele>
        <time>2019-04-18T07:50:53Z</time>
      </trkpt>
      <trkpt lat="47.03864" lon="6.2749">
        <ele>422</ele>
        <time>2019-04-18T07:51:25Z</time>
      </trkpt>
      <trkpt lat="47.03865" lon="6.2747">
        <ele>420</ele>
        <time>2019-04-18T07:51:40Z</time>
      </trkpt>
      <trkpt lat="47.03866" lon="6.27456">
        <ele>421</ele>
        <time>2019-04-18T07:51:49Z</time>
      </trkpt>
      <trkpt lat="47.03867" lon="6.27443">
        <ele>421</ele>
        <time>2019-04-18T07:51:58Z</time>
      </trkpt>
      <trkpt lat="47.03869" lon="6.27417">
        <ele>417</ele>
        <time>2019-04-18T07:52:15Z</time>
      </trkpt>
      <trkpt lat="47.03875" lon="6.2739">
        <ele>414</ele>
        <time>2019-04-18T07:52:33Z</time>
      </trkpt>
      <trkpt lat="47.03886" lon="6.2735">
        <ele>408</ele>
        <time>2019-04-18T07:52:59Z</time>
      </trkpt>
      <trkpt lat="47.03878" lon="6.27343">
        <ele>405</ele>
        <time>2019-04-18T07:53:08Z</time>
      </trkpt>
      <trkpt lat="47.03868" lon="6.27346">
        <ele>402</ele>
        <time>2019-04-18T07:53:15Z</time>
      </trkpt>
      <trkpt lat="47.03861" lon="6.27358">
        <ele>401</ele>
        <time>2019-04-18T07:53:23Z</time>
      </trkpt>
      <trkpt lat="47.03855" lon="6.27367">
        <ele>401</ele>
        <time>2019-04-18T07:53:31Z</time>
      </trkpt>
      <trkpt lat="47.03826" lon="6.27406">
        <ele>395</ele>
        <time>2019-04-18T07:54:06Z</time>
      </trkpt>
      <trkpt lat="47.0381" lon="6.27419">
        <ele>391</ele>
        <time>2019-04-18T07:54:22Z</time>
      </trkpt>
      <trkpt lat="47.03803" lon="6.27435">
        <ele>391</ele>
        <time>2019-04-18T07:54:39Z</time>
      </trkpt>
      <trkpt lat="47.03796" lon="6.27449">
        <ele>389</ele>
        <time>2019-04-18T07:54:58Z</time>
      </trkpt>
      <trkpt lat="47.0379" lon="6.27459">
        <ele>387</ele>
        <time>2019-04-18T07:55:06Z</time>
      </trkpt>
      <trkpt lat="47.03775" lon="6.27494">
        <ele>383</ele>
        <time>2019-04-18T07:55:30Z</time>
      </trkpt>
      <trkpt lat="47.03756" lon="6.27539">
        <ele>383</ele>
        <time>2019-04-18T07:56:02Z</time>
      </trkpt>
      <trkpt lat="47.03752" lon="6.27559">
        <ele>380</ele>
        <time>2019-04-18T07:57:01Z</time>
      </trkpt>
      <trkpt lat="47.03744" lon="6.27566">
        <ele>380</ele>
        <time>2019-04-18T07:57:10Z</time>
      </trkpt>
      <trkpt lat="47.03734" lon="6.27567">
        <ele>380</ele>
        <time>2019-04-18T07:57:21Z</time>
      </trkpt>
      <trkpt lat="47.03717" lon="6.27555">
        <ele>381</ele>
        <time>2019-04-18T07:57:41Z</time>
      </trkpt>
      <trkpt lat="47.03711" lon="6.27545">
        <ele>381</ele>
        <time>2019-04-18T07:57:49Z</time>
      </trkpt>
      <trkpt lat="47.03711" lon="6.27529">
        <ele>381</ele>
        <time>2019-04-18T07:58:02Z</time>
      </trkpt>
      <trkpt lat="47.03711" lon="6.27514">
        <ele>382</ele>
        <time>2019-04-18T07:58:11Z</time>
      </trkpt>
      <trkpt lat="47.03708" lon="6.27502">
        <ele>382</ele>
        <time>2019-04-18T07:58:20Z</time>
      </trkpt>
      <trkpt lat="47.03688" lon="6.27457">
        <ele>384</ele>
        <time>2019-04-18T07:58:59Z</time>
      </trkpt>
      <trkpt lat="47.03682" lon="6.27446">
        <ele>385</ele>
        <time>2019-04-18T07:59:04Z</time>
      </trkpt>
      <trkpt lat="47.03663" lon="6.27447">
        <ele>394</ele>
        <time>2019-04-18T07:59:27Z</time>
      </trkpt>
      <trkpt lat="47.03654" lon="6.27441">
        <ele>396</ele>
        <time>2019-04-18T07:59:52Z</time>
      </trkpt>
      <trkpt lat="47.03651" lon="6.27428">
        <ele>396</ele>
        <time>2019-04-18T08:00:16Z</time>
      </trkpt>
      <trkpt lat="47.03649" lon="6.2741">
        <ele>397</ele>
        <time>2019-04-18T08:00:33Z</time>
      </trkpt>
      <trkpt lat="47.03654" lon="6.27385">
        <ele>399</ele>
        <time>2019-04-18T08:01:12Z</time>
      </trkpt>
      <trkpt lat="47.03652" lon="6.27365">
        <ele>402</ele>
        <time>2019-04-18T08:01:27Z</time>
      </trkpt>
      <trkpt lat="47.03657" lon="6.27351">
        <ele>400</ele>
        <time>2019-04-18T08:01:38Z</time>
      </trkpt>
      <trkpt lat="47.03658" lon="6.27337">
        <ele>406</ele>
        <time>2019-04-18T08:01:51Z</time>
      </trkpt>
      <trkpt lat="47.03664" lon="6.27325">
        <ele>409</ele>
        <time>2019-04-18T08:01:59Z</time>
      </trkpt>
      <trkpt lat="47.03658" lon="6.27315">
        <ele>410</ele>
        <time>2019-04-18T08:02:12Z</time>
      </trkpt>
      <trkpt lat="47.03652" lon="6.27294">
        <ele>412</ele>
        <time>2019-04-18T08:02:35Z</time>
      </trkpt>
      <trkpt lat="47.03652" lon="6.27277">
        <ele>414</ele>
        <time>2019-04-18T08:02:52Z</time>
      </trkpt>
      <trkpt lat="47.03636" lon="6.27258">
        <ele>413</ele>
        <time>2019-04-18T08:03:22Z</time>
      </trkpt>
      <trkpt lat="47.03632" lon="6.27238">
        <ele>416</ele>
        <time>2019-04-18T08:03:40Z</time>
      </trkpt>
      <trkpt lat="47.03625" lon="6.27223">
        <ele>419</ele>
        <time>2019-04-18T08:03:58Z</time>
      </trkpt>
      <trkpt lat="47.03619" lon="6.27186">
        <ele>422</ele>
        <time>2019-04-18T08:04:25Z</time>
      </trkpt>
      <trkpt lat="47.03622" lon="6.27173">
        <ele>423</ele>
        <time>2019-04-18T08:04:33Z</time>
      </trkpt>
      <trkpt lat="47.03623" lon="6.27155">
        <ele>425</ele>
        <time>2019-04-18T08:04:49Z</time>
      </trkpt>
      <trkpt lat="47.03641" lon="6.27104">
        <ele>432</ele>
        <time>2019-04-18T08:05:35Z</time>
      </trkpt>
      <trkpt lat="47.03645" lon="6.27084">
        <ele>433</ele>
        <time>2019-04-18T08:05:53Z</time>
      </trkpt>
      <trkpt lat="47.03646" lon="6.27071">
        <ele>433</ele>
        <time>2019-04-18T08:06:03Z</time>
      </trkpt>
      <trkpt lat="47.03647" lon="6.27054">
        <ele>435</ele>
        <time>2019-04-18T08:06:17Z</time>
      </trkpt>
      <trkpt lat="47.03642" lon="6.27037">
        <ele>435</ele>
        <time>2019-04-18T08:06:35Z</time>
      </trkpt>
      <trkpt lat="47.03641" lon="6.2703">
        <ele>435</ele>
        <time>2019-04-18T08:06:59Z</time>
      </trkpt>
      <trkpt lat="47.03633" lon="6.2702">
        <ele>441</ele>
        <time>2019-04-18T08:07:45Z</time>
      </trkpt>
      <trkpt lat="47.03626" lon="6.27014">
        <ele>445</ele>
        <time>2019-04-18T08:07:58Z</time>
      </trkpt>
      <trkpt lat="47.03619" lon="6.2701">
        <ele>447</ele>
        <time>2019-04-18T08:08:09Z</time>
      </trkpt>
      <trkpt lat="47.03615" lon="6.27005">
        <ele>447</ele>
        <time>2019-04-18T08:08:14Z</time>
      </trkpt>
      <trkpt lat="47.03604" lon="6.27002">
        <ele>447</ele>
        <time>2019-04-18T08:08:30Z</time>
      </trkpt>
      <trkpt lat="47.03583" lon="6.26988">
        <ele>453</ele>
        <time>2019-04-18T08:09:18Z</time>
      </trkpt>
      <trkpt lat="47.03572" lon="6.26982">
        <ele>453</ele>
        <time>2019-04-18T08:09:36Z</time>
      </trkpt>
      <trkpt lat="47.03553" lon="6.26967">
        <ele>459</ele>
        <time>2019-04-18T08:10:18Z</time>
      </trkpt>
      <trkpt lat="47.03545" lon="6.26957">
        <ele>462</ele>
        <time>2019-04-18T08:10:42Z</time>
      </trkpt>
      <trkpt lat="47.03535" lon="6.26952">
        <ele>465</ele>
        <time>2019-04-18T08:11:06Z</time>
      </trkpt>
      <trkpt lat="47.03521" lon="6.26947">
        <ele>466</ele>
        <time>2019-04-18T08:11:19Z</time>
      </trkpt>
      <trkpt lat="47.03511" lon="6.2695">
        <ele>470</ele>
        <time>2019-04-18T08:11:51Z</time>
      </trkpt>
      <trkpt lat="47.0349" lon="6.26956">
        <ele>472</ele>
        <time>2019-04-18T08:12:23Z</time>
      </trkpt>
      <trkpt lat="47.0348" lon="6.26959">
        <ele>476</ele>
        <time>2019-04-18T08:12:42Z</time>
      </trkpt>
      <trkpt lat="47.03471" lon="6.26954">
        <ele>483</ele>
        <time>2019-04-18T08:13:23Z</time>
      </trkpt>
      <trkpt lat="47.0346" lon="6.26948">
        <ele>484</ele>
        <time>2019-04-18T08:13:38Z</time>
      </trkpt>
      <trkpt lat="47.03444" lon="6.26949">
        <ele>491</ele>
        <time>2019-04-18T08:14:08Z</time>
      </trkpt>
      <trkpt lat="47.03426" lon="6.26937">
        <ele>500</ele>
        <time>2019-04-18T08:15:41Z</time>
      </trkpt>
      <trkpt lat="47.03412" lon="6.26939">
        <ele>503</ele>
        <time>2019-04-18T08:16:41Z</time>
      </trkpt>
      <trkpt lat="47.03393" lon="6.2693">
        <ele>507</ele>
        <time>2019-04-18T08:17:11Z</time>
      </trkpt>
      <trkpt lat="47.03383" lon="6.26932">
        <ele>508</ele>
        <time>2019-04-18T08:17:30Z</time>
      </trkpt>
      <trkpt lat="47.03351" lon="6.26928">
        <ele>516</ele>
        <time>2019-04-18T08:18:38Z</time>
      </trkpt>
      <trkpt lat="47.03328" lon="6.26928">
        <ele>522</ele>
        <time>2019-04-18T08:19:15Z</time>
      </trkpt>
      <trkpt lat="47.03312" lon="6.26921">
        <ele>525</ele>
        <time>2019-04-18T08:19:37Z</time>
      </trkpt>
      <trkpt lat="47.03307" lon="6.26905">
        <ele>530</ele>
        <time>2019-04-18T08:20:15Z</time>
      </trkpt>
      <trkpt lat="47.03299" lon="6.26897">
        <ele>532</ele>
        <time>2019-04-18T08:20:32Z</time>
      </trkpt>
      <trkpt lat="47.03294" lon="6.26885">
        <ele>533</ele>
        <time>2019-04-18T08:20:50Z</time>
      </trkpt>
      <trkpt lat="47.03293" lon="6.26869">
        <ele>536</ele>
        <time>2019-04-18T08:21:12Z</time>
      </trkpt>
      <trkpt lat="47.03288" lon="6.2685">
        <ele>540</ele>
        <time>2019-04-18T08:21:38Z</time>
      </trkpt>
      <trkpt lat="47.03286" lon="6.2682">
        <ele>544</ele>
        <time>2019-04-18T08:22:08Z</time>
      </trkpt>
      <trkpt lat="47.03278" lon="6.26793">
        <ele>548</ele>
        <time>2019-04-18T08:22:36Z</time>
      </trkpt>
      <trkpt lat="47.03268" lon="6.26774">
        <ele>550</ele>
        <time>2019-04-18T08:22:54Z</time>
      </trkpt>
      <trkpt lat="47.03261" lon="6.26766">
        <ele>550</ele>
        <time>2019-04-18T08:23:15Z</time>
      </trkpt>
      <trkpt lat="47.03252" lon="6.2676">
        <ele>550</ele>
        <time>2019-04-18T08:23:24Z</time>
      </trkpt>
      <trkpt lat="47.03245" lon="6.26748">
        <ele>552</ele>
        <time>2019-04-18T08:23:42Z</time>
      </trkpt>
      <trkpt lat="47.03239" lon="6.26737">
        <ele>553</ele>
        <time>2019-04-18T08:23:55Z</time>
      </trkpt>
      <trkpt lat="47.03238" lon="6.26722">
        <ele>558</ele>
        <time>2019-04-18T08:24:31Z</time>
      </trkpt>
      <trkpt lat="47.03227" lon="6.26716">
        <ele>562</ele>
        <time>2019-04-18T08:25:43Z</time>
      </trkpt>
      <trkpt lat="47.0321" lon="6.26704">
        <ele>572</ele>
        <time>2019-04-18T08:26:19Z</time>
      </trkpt>
      <trkpt lat="47.03198" lon="6.267">
        <ele>578</ele>
        <time>2019-04-18T08:26:37Z</time>
      </trkpt>
      <trkpt lat="47.03185" lon="6.26698">
        <ele>581</ele>
        <time>2019-04-18T08:26:55Z</time>
      </trkpt>
      <trkpt lat="47.03177" lon="6.26703">
        <ele>582</ele>
        <time>2019-04-18T08:27:05Z</time>
      </trkpt>
      <trkpt lat="47.03171" lon="6.26714">
        <ele>585</ele>
        <time>2019-04-18T08:27:19Z</time>
      </trkpt>
      <trkpt lat="47.03177" lon="6.26725">
        <ele>583</ele>
        <time>2019-04-18T08:27:28Z</time>
      </trkpt>
      <trkpt lat="47.03175" lon="6.26741">
        <ele>584</ele>
        <time>2019-04-18T08:27:45Z</time>
      </trkpt>
      <trkpt lat="47.03169" lon="6.26751">
        <ele>585</ele>
        <time>2019-04-18T08:27:54Z</time>
      </trkpt>
      <trkpt lat="47.0316" lon="6.2676">
        <ele>585</ele>
        <time>2019-04-18T08:28:03Z</time>
      </trkpt>
      <trkpt lat="47.03152" lon="6.26768">
        <ele>587</ele>
        <time>2019-04-18T08:28:11Z</time>
      </trkpt>
      <trkpt lat="47.03149" lon="6.26782">
        <ele>589</ele>
        <time>2019-04-18T08:28:26Z</time>
      </trkpt>
      <trkpt lat="47.03143" lon="6.26793">
        <ele>589</ele>
        <time>2019-04-18T08:28:43Z</time>
      </trkpt>
      <trkpt lat="47.03129" lon="6.26806">
        <ele>591</ele>
        <time>2019-04-18T08:28:58Z</time>
      </trkpt>
      <trkpt lat="47.0312" lon="6.26812">
        <ele>591</ele>
        <time>2019-04-18T08:29:05Z</time>
      </trkpt>
      <trkpt lat="47.03116" lon="6.26824">
        <ele>595</ele>
        <time>2019-04-18T08:29:14Z</time>
      </trkpt>
      <trkpt lat="47.0312" lon="6.26838">
        <ele>595</ele>
        <time>2019-04-18T08:29:29Z</time>
      </trkpt>
      <trkpt lat="47.03121" lon="6.26853">
        <ele>597</ele>
        <time>2019-04-18T08:29:47Z</time>
      </trkpt>
      <trkpt lat="47.03118" lon="6.26867">
        <ele>597</ele>
        <time>2019-04-18T08:29:56Z</time>
      </trkpt>
      <trkpt lat="47.03111" lon="6.26877">
        <ele>598</ele>
        <time>2019-04-18T08:30:04Z</time>
      </trkpt>
      <trkpt lat="47.03106" lon="6.26906">
        <ele>602</ele>
        <time>2019-04-18T08:30:28Z</time>
      </trkpt>
      <trkpt lat="47.031" lon="6.26925">
        <ele>604</ele>
        <time>2019-04-18T08:30:48Z</time>
      </trkpt>
      <trkpt lat="47.03096" lon="6.26938">
        <ele>604</ele>
        <time>2019-04-18T08:30:58Z</time>
      </trkpt>
      <trkpt lat="47.03082" lon="6.26969">
        <ele>611</ele>
        <time>2019-04-18T08:31:29Z</time>
      </trkpt>
      <trkpt lat="47.03082" lon="6.26996">
        <ele>612</ele>
        <time>2019-04-18T08:31:52Z</time>
      </trkpt>
      <trkpt lat="47.03082" lon="6.27012">
        <ele>613</ele>
        <time>2019-04-18T08:31:59Z</time>
      </trkpt>
      <trkpt lat="47.03081" lon="6.27038">
        <ele>618</ele>
        <time>2019-04-18T08:32:27Z</time>
      </trkpt>
      <trkpt lat="47.03088" lon="6.27048">
        <ele>618</ele>
        <time>2019-04-18T08:32:37Z</time>
      </trkpt>
      <trkpt lat="47.03095" lon="6.27056">
        <ele>616</ele>
        <time>2019-04-18T08:32:45Z</time>
      </trkpt>
      <trkpt lat="47.03096" lon="6.2707">
        <ele>617</ele>
        <time>2019-04-18T08:33:06Z</time>
      </trkpt>
      <trkpt lat="47.03107" lon="6.27077">
        <ele>618</ele>
        <time>2019-04-18T08:33:21Z</time>
      </trkpt>
      <trkpt lat="47.03109" lon="6.27094">
        <ele>616</ele>
        <time>2019-04-18T08:33:40Z</time>
      </trkpt>
      <trkpt lat="47.03117" lon="6.27091">
        <ele>622</ele>
        <time>2019-04-18T08:36:11Z</time>
      </trkpt>
      <trkpt lat="47.03116" lon="6.27108">
        <ele>613</ele>
        <time>2019-04-18T08:36:25Z</time>
      </trkpt>
      <trkpt lat="47.03121" lon="6.27123">
        <ele>615</ele>
        <time>2019-04-18T08:37:21Z</time>
      </trkpt>
      <trkpt lat="47.03124" lon="6.27139">
        <ele>615</ele>
        <time>2019-04-18T08:37:31Z</time>
      </trkpt>
      <trkpt lat="47.03127" lon="6.27169">
        <ele>620</ele>
        <time>2019-04-18T08:37:49Z</time>
      </trkpt>
      <trkpt lat="47.03126" lon="6.27182">
        <ele>621</ele>
        <time>2019-04-18T08:37:59Z</time>
      </trkpt>
      <trkpt lat="47.03123" lon="6.27194">
        <ele>621</ele>
        <time>2019-04-18T08:38:07Z</time>
      </trkpt>
      <trkpt lat="47.0312" lon="6.27208">
        <ele>622</ele>
        <time>2019-04-18T08:38:19Z</time>
      </trkpt>
      <trkpt lat="47.03121" lon="6.27221">
        <ele>623</ele>
        <time>2019-04-18T08:38:29Z</time>
      </trkpt>
      <trkpt lat="47.03125" lon="6.27233">
        <ele>624</ele>
        <time>2019-04-18T08:38:35Z</time>
      </trkpt>
      <trkpt lat="47.03126" lon="6.27248">
        <ele>626</ele>
        <time>2019-04-18T08:38:49Z</time>
      </trkpt>
      <trkpt lat="47.03127" lon="6.27263">
        <ele>626</ele>
        <time>2019-04-18T08:38:59Z</time>
      </trkpt>
      <trkpt lat="47.03128" lon="6.27286">
        <ele>628</ele>
        <time>2019-04-18T08:39:18Z</time>
      </trkpt>
      <trkpt lat="47.03126" lon="6.273">
        <ele>629</ele>
        <time>2019-04-18T08:39:30Z</time>
      </trkpt>
      <trkpt lat="47.0313" lon="6.27311">
        <ele>630</ele>
        <time>2019-04-18T08:39:39Z</time>
      </trkpt>
      <trkpt lat="47.03132" lon="6.27324">
        <ele>630</ele>
        <time>2019-04-18T08:39:53Z</time>
      </trkpt>
      <trkpt lat="47.03129" lon="6.27344">
        <ele>631</ele>
        <time>2019-04-18T08:40:09Z</time>
      </trkpt>
      <trkpt lat="47.03137" lon="6.2735">
        <ele>633</ele>
        <time>2019-04-18T08:40:17Z</time>
      </trkpt>
      <trkpt lat="47.03123" lon="6.27379">
        <ele>635</ele>
        <time>2019-04-18T08:40:43Z</time>
      </trkpt>
      <trkpt lat="47.0312" lon="6.27393">
        <ele>635</ele>
        <time>2019-04-18T08:41:00Z</time>
      </trkpt>
      <trkpt lat="47.03107" lon="6.27397">
        <ele>637</ele>
        <time>2019-04-18T08:41:16Z</time>
      </trkpt>
      <trkpt lat="47.03097" lon="6.27401">
        <ele>640</ele>
        <time>2019-04-18T08:41:31Z</time>
      </trkpt>
      <trkpt lat="47.03067" lon="6.27367">
        <ele>643</ele>
        <time>2019-04-18T08:42:25Z</time>
      </trkpt>
      <trkpt lat="47.03061" lon="6.27358">
        <ele>643</ele>
        <time>2019-04-18T08:42:33Z</time>
      </trkpt>
      <trkpt lat="47.0305" lon="6.2735">
        <ele>645</ele>
        <time>2019-04-18T08:42:43Z</time>
      </trkpt>
      <trkpt lat="47.03046" lon="6.27338">
        <ele>646</ele>
        <time>2019-04-18T08:42:52Z</time>
      </trkpt>
      <trkpt lat="47.0304" lon="6.27325">
        <ele>646</ele>
        <time>2019-04-18T08:42:59Z</time>
      </trkpt>
      <trkpt lat="47.03035" lon="6.27311">
        <ele>649</ele>
        <time>2019-04-18T08:43:17Z</time>
      </trkpt>
      <trkpt lat="47.03019" lon="6.27304">
        <ele>654</ele>
        <time>2019-04-18T08:43:43Z</time>
      </trkpt>
      <trkpt lat="47.03011" lon="6.27298">
        <ele>654</ele>
        <time>2019-04-18T08:43:51Z</time>
      </trkpt>
      <trkpt lat="47.02979" lon="6.27283">
        <ele>660</ele>
        <time>2019-04-18T08:44:39Z</time>
      </trkpt>
      <trkpt lat="47.02969" lon="6.27268">
        <ele>660</ele>
        <time>2019-04-18T08:44:57Z</time>
      </trkpt>
      <trkpt lat="47.02947" lon="6.27244">
        <ele>663</ele>
        <time>2019-04-18T08:45:21Z</time>
      </trkpt>
      <trkpt lat="47.02939" lon="6.27238">
        <ele>665</ele>
        <time>2019-04-18T08:45:37Z</time>
      </trkpt>
      <trkpt lat="47.02927" lon="6.27229">
        <ele>669</ele>
        <time>2019-04-18T08:45:57Z</time>
      </trkpt>
      <trkpt lat="47.02919" lon="6.27223">
        <ele>669</ele>
        <time>2019-04-18T08:46:03Z</time>
      </trkpt>
      <trkpt lat="47.02911" lon="6.27219">
        <ele>670</ele>
        <time>2019-04-18T08:46:13Z</time>
      </trkpt>
      <trkpt lat="47.02893" lon="6.27214">
        <ele>673</ele>
        <time>2019-04-18T08:46:42Z</time>
      </trkpt>
      <trkpt lat="47.02883" lon="6.27205">
        <ele>675</ele>
        <time>2019-04-18T08:46:58Z</time>
      </trkpt>
      <trkpt lat="47.02873" lon="6.27198">
        <ele>676</ele>
        <time>2019-04-18T08:47:06Z</time>
      </trkpt>
      <trkpt lat="47.02865" lon="6.27191">
        <ele>677</ele>
        <time>2019-04-18T08:47:18Z</time>
      </trkpt>
      <trkpt lat="47.02853" lon="6.27175">
        <ele>679</ele>
        <time>2019-04-18T08:47:38Z</time>
      </trkpt>
      <trkpt lat="47.02863" lon="6.2717">
        <ele>680</ele>
        <time>2019-04-18T08:47:48Z</time>
      </trkpt>
      <trkpt lat="47.02872" lon="6.27167">
        <ele>682</ele>
        <time>2019-04-18T08:47:56Z</time>
      </trkpt>
      <trkpt lat="47.02882" lon="6.27162">
        <ele>681</ele>
        <time>2019-04-18T08:48:05Z</time>
      </trkpt>
      <trkpt lat="47.02889" lon="6.27154">
        <ele>682</ele>
        <time>2019-04-18T08:48:19Z</time>
      </trkpt>
      <trkpt lat="47.02898" lon="6.27149">
        <ele>682</ele>
        <time>2019-04-18T08:48:33Z</time>
      </trkpt>
      <trkpt lat="47.02901" lon="6.27136">
        <ele>686</ele>
        <time>2019-04-18T08:48:49Z</time>
      </trkpt>
      <trkpt lat="47.02894" lon="6.27123">
        <ele>688</ele>
        <time>2019-04-18T08:49:07Z</time>
      </trkpt>
      <trkpt lat="47.02887" lon="6.27112">
        <ele>689</ele>
        <time>2019-04-18T08:49:15Z</time>
      </trkpt>
      <trkpt lat="47.0287" lon="6.27105">
        <ele>690</ele>
        <time>2019-04-18T08:49:33Z</time>
      </trkpt>
      <trkpt lat="47.02861" lon="6.27103">
        <ele>692</ele>
        <time>2019-04-18T08:49:45Z</time>
      </trkpt>
      <trkpt lat="47.02853" lon="6.27096">
        <ele>694</ele>
        <time>2019-04-18T08:49:59Z</time>
      </trkpt>
      <trkpt lat="47.02842" lon="6.2708">
        <ele>698</ele>
        <time>2019-04-18T08:50:20Z</time>
      </trkpt>
      <trkpt lat="47.02828" lon="6.2708">
        <ele>697</ele>
        <time>2019-04-18T08:51:15Z</time>
      </trkpt>
      <trkpt lat="47.02793" lon="6.27066">
        <ele>706</ele>
        <time>2019-04-18T08:51:55Z</time>
      </trkpt>
      <trkpt lat="47.02781" lon="6.27047">
        <ele>710</ele>
        <time>2019-04-18T08:52:14Z</time>
      </trkpt>
      <trkpt lat="47.02772" lon="6.27046">
        <ele>711</ele>
        <time>2019-04-18T08:52:25Z</time>
      </trkpt>
      <trkpt lat="47.02762" lon="6.27048">
        <ele>716</ele>
        <time>2019-04-18T08:52:40Z</time>
      </trkpt>
      <trkpt lat="47.02755" lon="6.27036">
        <ele>721</ele>
        <time>2019-04-18T08:52:54Z</time>
      </trkpt>
      <trkpt lat="47.02747" lon="6.27029">
        <ele>722</ele>
        <time>2019-04-18T08:53:01Z</time>
      </trkpt>
      <trkpt lat="47.02738" lon="6.27003">
        <ele>726</ele>
        <time>2019-04-18T08:53:46Z</time>
      </trkpt>
      <trkpt lat="47.0273" lon="6.26989">
        <ele>728</ele>
        <time>2019-04-18T08:54:06Z</time>
      </trkpt>
      <trkpt lat="47.02726" lon="6.26977">
        <ele>728</ele>
        <time>2019-04-18T08:54:11Z</time>
      </trkpt>
      <trkpt lat="47.02715" lon="6.26957">
        <ele>729</ele>
        <time>2019-04-18T08:54:35Z</time>
      </trkpt>
      <trkpt lat="47.02707" lon="6.26943">
        <ele>732</ele>
        <time>2019-04-18T08:55:00Z</time>
      </trkpt>
      <trkpt lat="47.02713" lon="6.26941">
        <ele>740</ele>
        <time>2019-04-18T08:55:51Z</time>
      </trkpt>
      <trkpt lat="47.02704" lon="6.26924">
        <ele>741</ele>
        <time>2019-04-18T08:55:58Z</time>
      </trkpt>
      <trkpt lat="47.02698" lon="6.26912">
        <ele>742</ele>
        <time>2019-04-18T08:56:02Z</time>
      </trkpt>
      <trkpt lat="47.02701" lon="6.26897">
        <ele>745</ele>
        <time>2019-04-18T08:56:17Z</time>
      </trkpt>
      <trkpt lat="47.02702" lon="6.26883">
        <ele>745</ele>
        <time>2019-04-18T08:56:25Z</time>
      </trkpt>
      <trkpt lat="47.02698" lon="6.26871">
        <ele>745</ele>
        <time>2019-04-18T08:56:34Z</time>
      </trkpt>
      <trkpt lat="47.02694" lon="6.26858">
        <ele>744</ele>
        <time>2019-04-18T08:56:42Z</time>
      </trkpt>
      <trkpt lat="47.02681" lon="6.26807">
        <ele>747</ele>
        <time>2019-04-18T08:57:20Z</time>
      </trkpt>
      <trkpt lat="47.02677" lon="6.26783">
        <ele>747</ele>
        <time>2019-04-18T08:57:37Z</time>
      </trkpt>
      <trkpt lat="47.02674" lon="6.26771">
        <ele>748</ele>
        <time>2019-04-18T08:57:43Z</time>
      </trkpt>
      <trkpt lat="47.02673" lon="6.26749">
        <ele>748</ele>
        <time>2019-04-18T08:57:58Z</time>
      </trkpt>
      <trkpt lat="47.02673" lon="6.26735">
        <ele>749</ele>
        <time>2019-04-18T08:58:08Z</time>
      </trkpt>
      <trkpt lat="47.02671" lon="6.2672">
        <ele>748</ele>
        <time>2019-04-18T08:58:16Z</time>
      </trkpt>
      <trkpt lat="47.02671" lon="6.26698">
        <ele>749</ele>
        <time>2019-04-18T08:58:36Z</time>
      </trkpt>
      <trkpt lat="47.02676" lon="6.26682">
        <ele>751</ele>
        <time>2019-04-18T08:58:50Z</time>
      </trkpt>
      <trkpt lat="47.02698" lon="6.26675">
        <ele>752</ele>
        <time>2019-04-18T08:59:18Z</time>
      </trkpt>
      <trkpt lat="47.02717" lon="6.26678">
        <ele>753</ele>
        <time>2019-04-18T08:59:37Z</time>
      </trkpt>
      <trkpt lat="47.02728" lon="6.26683">
        <ele>753</ele>
        <time>2019-04-18T08:59:48Z</time>
      </trkpt>
      <trkpt lat="47.02753" lon="6.26703">
        <ele>757</ele>
        <time>2019-04-18T09:00:26Z</time>
      </trkpt>
      <trkpt lat="47.02778" lon="6.26747">
        <ele>758</ele>
        <time>2019-04-18T09:01:11Z</time>
      </trkpt>
      <trkpt lat="47.02791" lon="6.26771">
        <ele>759</ele>
        <time>2019-04-18T09:01:31Z</time>
      </trkpt>
      <trkpt lat="47.02794" lon="6.26784">
        <ele>759</ele>
        <time>2019-04-18T09:01:41Z</time>
      </trkpt>
      <trkpt lat="47.02795" lon="6.26799">
        <ele>759</ele>
        <time>2019-04-18T09:01:48Z</time>
      </trkpt>
      <trkpt lat="47.02799" lon="6.26811">
        <ele>760</ele>
        <time>2019-04-18T09:01:56Z</time>
      </trkpt>
      <trkpt lat="47.02819" lon="6.26844">
        <ele>765</ele>
        <time>2019-04-18T09:02:31Z</time>
      </trkpt>
      <trkpt lat="47.02832" lon="6.26863">
        <ele>767</ele>
        <time>2019-04-18T09:02:47Z</time>
      </trkpt>
      <trkpt lat="47.02842" lon="6.26866">
        <ele>768</ele>
        <time>2019-04-18T09:02:53Z</time>
      </trkpt>
      <trkpt lat="47.02852" lon="6.26865">
        <ele>768</ele>
        <time>2019-04-18T09:03:06Z</time>
      </trkpt>
      <trkpt lat="47.02875" lon="6.26856">
        <ele>770</ele>
        <time>2019-04-18T09:03:25Z</time>
      </trkpt>
      <trkpt lat="47.02886" lon="6.26855">
        <ele>770</ele>
        <time>2019-04-18T09:03:34Z</time>
      </trkpt>
      <trkpt lat="47.02895" lon="6.26859">
        <ele>772</ele>
        <time>2019-04-18T09:03:42Z</time>
      </trkpt>
      <trkpt lat="47.02916" lon="6.26879">
        <ele>773</ele>
        <time>2019-04-18T09:04:07Z</time>
      </trkpt>
      <trkpt lat="47.02924" lon="6.26887">
        <ele>773</ele>
        <time>2019-04-18T09:04:14Z</time>
      </trkpt>
      <trkpt lat="47.02933" lon="6.26893">
        <ele>773</ele>
        <time>2019-04-18T09:04:23Z</time>
      </trkpt>
      <trkpt lat="47.02938" lon="6.26911">
        <ele>774</ele>
        <time>2019-04-18T09:04:40Z</time>
      </trkpt>
      <trkpt lat="47.02948" lon="6.26915">
        <ele>775</ele>
        <time>2019-04-18T09:05:21Z</time>
      </trkpt>
      <trkpt lat="47.02958" lon="6.26916">
        <ele>775</ele>
        <time>2019-04-18T09:05:28Z</time>
      </trkpt>
      <trkpt lat="47.0298" lon="6.26901">
        <ele>780</ele>
        <time>2019-04-18T09:05:56Z</time>
      </trkpt>
      <trkpt lat="47.02989" lon="6.26901">
        <ele>781</ele>
        <time>2019-04-18T09:06:12Z</time>
      </trkpt>
      <trkpt lat="47.02992" lon="6.26893">
        <ele>780</ele>
        <time>2019-04-18T09:14:05Z</time>
      </trkpt>
      <trkpt lat="47.02954" lon="6.2691">
        <ele>779</ele>
        <time>2019-04-18T09:17:11Z</time>
      </trkpt>
      <trkpt lat="47.02949" lon="6.26909">
        <ele>780</ele>
        <time>2019-04-18T09:17:15Z</time>
      </trkpt>
      <trkpt lat="47.02945" lon="6.26906">
        <ele>780</ele>
        <time>2019-04-18T09:17:19Z</time>
      </trkpt>
      <trkpt lat="47.02936" lon="6.269">
        <ele>782</ele>
        <time>2019-04-18T09:17:28Z</time>
      </trkpt>
      <trkpt lat="47.02931" lon="6.26896">
        <ele>783</ele>
        <time>2019-04-18T09:17:33Z</time>
      </trkpt>
      <trkpt lat="47.02922" lon="6.26898">
        <ele>776</ele>
        <time>2019-04-18T09:18:18Z</time>
      </trkpt>
      <trkpt lat="47.02901" lon="6.26863">
        <ele>783</ele>
        <time>2019-04-18T09:18:41Z</time>
      </trkpt>
      <trkpt lat="47.02897" lon="6.26858">
        <ele>783</ele>
        <time>2019-04-18T09:18:46Z</time>
      </trkpt>
      <trkpt lat="47.02893" lon="6.26855">
        <ele>782</ele>
        <time>2019-04-18T09:18:50Z</time>
      </trkpt>
      <trkpt lat="47.02888" lon="6.26853">
        <ele>782</ele>
        <time>2019-04-18T09:18:54Z</time>
      </trkpt>
      <trkpt lat="47.02883" lon="6.26851">
        <ele>783</ele>
        <time>2019-04-18T09:18:58Z</time>
      </trkpt>
      <trkpt lat="47.02878" lon="6.26851">
        <ele>783</ele>
        <time>2019-04-18T09:19:02Z</time>
      </trkpt>
      <trkpt lat="47.02873" lon="6.26852">
        <ele>783</ele>
        <time>2019-04-18T09:19:06Z</time>
      </trkpt>
      <trkpt lat="47.02864" lon="6.26857">
        <ele>781</ele>
        <time>2019-04-18T09:19:13Z</time>
      </trkpt>
      <trkpt lat="47.02854" lon="6.26862">
        <ele>782</ele>
        <time>2019-04-18T09:19:21Z</time>
      </trkpt>
      <trkpt lat="47.02845" lon="6.26865">
        <ele>780</ele>
        <time>2019-04-18T09:19:30Z</time>
      </trkpt>
      <trkpt lat="47.02835" lon="6.26864">
        <ele>780</ele>
        <time>2019-04-18T09:19:38Z</time>
      </trkpt>
      <trkpt lat="47.02826" lon="6.26858">
        <ele>780</ele>
        <time>2019-04-18T09:19:46Z</time>
      </trkpt>
      <trkpt lat="47.02818" lon="6.26849">
        <ele>780</ele>
        <time>2019-04-18T09:19:53Z</time>
      </trkpt>
      <trkpt lat="47.02813" lon="6.26837">
        <ele>778</ele>
        <time>2019-04-18T09:20:02Z</time>
      </trkpt>
      <trkpt lat="47.02804" lon="6.26813">
        <ele>777</ele>
        <time>2019-04-18T09:20:19Z</time>
      </trkpt>
      <trkpt lat="47.02794" lon="6.2679">
        <ele>777</ele>
        <time>2019-04-18T09:20:33Z</time>
      </trkpt>
      <trkpt lat="47.02789" lon="6.26778">
        <ele>777</ele>
        <time>2019-04-18T09:20:40Z</time>
      </trkpt>
      <trkpt lat="47.02784" lon="6.26767">
        <ele>776</ele>
        <time>2019-04-18T09:20:48Z</time>
      </trkpt>
      <trkpt lat="47.0278" lon="6.26755">
        <ele>776</ele>
        <time>2019-04-18T09:20:55Z</time>
      </trkpt>
      <trkpt lat="47.02775" lon="6.26742">
        <ele>777</ele>
        <time>2019-04-18T09:21:03Z</time>
      </trkpt>
      <trkpt lat="47.02758" lon="6.26707">
        <ele>774</ele>
        <time>2019-04-18T09:21:29Z</time>
      </trkpt>
      <trkpt lat="47.02751" lon="6.26696">
        <ele>774</ele>
        <time>2019-04-18T09:21:37Z</time>
      </trkpt>
      <trkpt lat="47.02734" lon="6.2668">
        <ele>772</ele>
        <time>2019-04-18T09:21:53Z</time>
      </trkpt>
      <trkpt lat="47.02716" lon="6.26672">
        <ele>770</ele>
        <time>2019-04-18T09:22:10Z</time>
      </trkpt>
      <trkpt lat="47.02686" lon="6.2667">
        <ele>764</ele>
        <time>2019-04-18T09:22:33Z</time>
      </trkpt>
      <trkpt lat="47.02676" lon="6.26672">
        <ele>763</ele>
        <time>2019-04-18T09:22:41Z</time>
      </trkpt>
      <trkpt lat="47.02672" lon="6.26675">
        <ele>762</ele>
        <time>2019-04-18T09:22:45Z</time>
      </trkpt>
      <trkpt lat="47.02668" lon="6.2668">
        <ele>761</ele>
        <time>2019-04-18T09:22:49Z</time>
      </trkpt>
      <trkpt lat="47.02667" lon="6.26687">
        <ele>760</ele>
        <time>2019-04-18T09:22:53Z</time>
      </trkpt>
      <trkpt lat="47.02668" lon="6.26694">
        <ele>759</ele>
        <time>2019-04-18T09:22:57Z</time>
      </trkpt>
      <trkpt lat="47.02671" lon="6.26708">
        <ele>759</ele>
        <time>2019-04-18T09:23:05Z</time>
      </trkpt>
      <trkpt lat="47.02673" lon="6.26714">
        <ele>759</ele>
        <time>2019-04-18T09:23:09Z</time>
      </trkpt>
      <trkpt lat="47.02674" lon="6.26752">
        <ele>756</ele>
        <time>2019-04-18T09:23:32Z</time>
      </trkpt>
      <trkpt lat="47.02676" lon="6.26784">
        <ele>754</ele>
        <time>2019-04-18T09:23:51Z</time>
      </trkpt>
      <trkpt lat="47.02677" lon="6.26791">
        <ele>754</ele>
        <time>2019-04-18T09:23:55Z</time>
      </trkpt>
      <trkpt lat="47.02682" lon="6.26818">
        <ele>751</ele>
        <time>2019-04-18T09:24:12Z</time>
      </trkpt>
      <trkpt lat="47.02684" lon="6.26825">
        <ele>751</ele>
        <time>2019-04-18T09:24:17Z</time>
      </trkpt>
      <trkpt lat="47.02688" lon="6.26833">
        <ele>751</ele>
        <time>2019-04-18T09:24:23Z</time>
      </trkpt>
      <trkpt lat="47.02692" lon="6.26839">
        <ele>752</ele>
        <time>2019-04-18T09:24:28Z</time>
      </trkpt>
      <trkpt lat="47.02695" lon="6.26843">
        <ele>752</ele>
        <time>2019-04-18T09:24:32Z</time>
      </trkpt>
      <trkpt lat="47.02701" lon="6.26872">
        <ele>751</ele>
        <time>2019-04-18T09:24:50Z</time>
      </trkpt>
      <trkpt lat="47.02702" lon="6.26933">
        <ele>745</ele>
        <time>2019-04-18T09:25:29Z</time>
      </trkpt>
      <trkpt lat="47.02689" lon="6.26939">
        <ele>742</ele>
        <time>2019-04-18T09:25:56Z</time>
      </trkpt>
      <trkpt lat="47.02679" lon="6.26941">
        <ele>743</ele>
        <time>2019-04-18T09:26:04Z</time>
      </trkpt>
      <trkpt lat="47.0267" lon="6.2694">
        <ele>744</ele>
        <time>2019-04-18T09:26:11Z</time>
      </trkpt>
      <trkpt lat="47.02662" lon="6.26946">
        <ele>744</ele>
        <time>2019-04-18T09:26:24Z</time>
      </trkpt>
      <trkpt lat="47.02627" lon="6.27039">
        <ele>753</ele>
        <time>2019-04-18T09:28:17Z</time>
      </trkpt>
      <trkpt lat="47.02618" lon="6.27046">
        <ele>754</ele>
        <time>2019-04-18T09:28:23Z</time>
      </trkpt>
      <trkpt lat="47.02612" lon="6.27053">
        <ele>755</ele>
        <time>2019-04-18T09:28:33Z</time>
      </trkpt>
      <trkpt lat="47.02601" lon="6.27057">
        <ele>756</ele>
        <time>2019-04-18T09:29:01Z</time>
      </trkpt>
      <trkpt lat="47.02596" lon="6.27078">
        <ele>756</ele>
        <time>2019-04-18T09:29:20Z</time>
      </trkpt>
      <trkpt lat="47.02589" lon="6.27099">
        <ele>755</ele>
        <time>2019-04-18T09:29:37Z</time>
      </trkpt>
      <trkpt lat="47.0259" lon="6.2714">
        <ele>757</ele>
        <time>2019-04-18T09:29:59Z</time>
      </trkpt>
      <trkpt lat="47.02594" lon="6.27156">
        <ele>757</ele>
        <time>2019-04-18T09:30:10Z</time>
      </trkpt>
      <trkpt lat="47.02593" lon="6.27174">
        <ele>757</ele>
        <time>2019-04-18T09:30:28Z</time>
      </trkpt>
      <trkpt lat="47.02595" lon="6.27187">
        <ele>757</ele>
        <time>2019-04-18T09:30:35Z</time>
      </trkpt>
      <trkpt lat="47.0259" lon="6.27202">
        <ele>757</ele>
        <time>2019-04-18T09:30:42Z</time>
      </trkpt>
      <trkpt lat="47.02587" lon="6.27213">
        <ele>756</ele>
        <time>2019-04-18T09:30:51Z</time>
      </trkpt>
      <trkpt lat="47.02585" lon="6.2723">
        <ele>756</ele>
        <time>2019-04-18T09:31:00Z</time>
      </trkpt>
      <trkpt lat="47.02579" lon="6.2724">
        <ele>757</ele>
        <time>2019-04-18T09:31:06Z</time>
      </trkpt>
      <trkpt lat="47.02574" lon="6.27251">
        <ele>757</ele>
        <time>2019-04-18T09:31:23Z</time>
      </trkpt>
      <trkpt lat="47.02569" lon="6.27263">
        <ele>757</ele>
        <time>2019-04-18T09:31:31Z</time>
      </trkpt>
      <trkpt lat="47.02564" lon="6.27274">
        <ele>757</ele>
        <time>2019-04-18T09:31:37Z</time>
      </trkpt>
      <trkpt lat="47.02559" lon="6.27284">
        <ele>756</ele>
        <time>2019-04-18T09:31:48Z</time>
      </trkpt>
      <trkpt lat="47.02558" lon="6.27311">
        <ele>755</ele>
        <time>2019-04-18T09:32:05Z</time>
      </trkpt>
      <trkpt lat="47.0256" lon="6.27338">
        <ele>758</ele>
        <time>2019-04-18T09:32:28Z</time>
      </trkpt>
      <trkpt lat="47.02558" lon="6.27351">
        <ele>758</ele>
        <time>2019-04-18T09:32:38Z</time>
      </trkpt>
      <trkpt lat="47.02549" lon="6.2736">
        <ele>757</ele>
        <time>2019-04-18T09:32:46Z</time>
      </trkpt>
      <trkpt lat="47.02541" lon="6.27365">
        <ele>756</ele>
        <time>2019-04-18T09:32:54Z</time>
      </trkpt>
      <trkpt lat="47.02554" lon="6.27395">
        <ele>756</ele>
        <time>2019-04-18T09:33:20Z</time>
      </trkpt>
      <trkpt lat="47.02562" lon="6.27404">
        <ele>756</ele>
        <time>2019-04-18T09:33:29Z</time>
      </trkpt>
      <trkpt lat="47.02562" lon="6.27422">
        <ele>755</ele>
        <time>2019-04-18T09:33:44Z</time>
      </trkpt>
      <trkpt lat="47.02565" lon="6.27442">
        <ele>755</ele>
        <time>2019-04-18T09:34:00Z</time>
      </trkpt>
      <trkpt lat="47.02569" lon="6.27455">
        <ele>755</ele>
        <time>2019-04-18T09:34:14Z</time>
      </trkpt>
      <trkpt lat="47.02576" lon="6.27464">
        <ele>756</ele>
        <time>2019-04-18T09:34:23Z</time>
      </trkpt>
      <trkpt lat="47.02583" lon="6.27478">
        <ele>756</ele>
        <time>2019-04-18T09:34:35Z</time>
      </trkpt>
      <trkpt lat="47.02583" lon="6.27494">
        <ele>755</ele>
        <time>2019-04-18T09:34:45Z</time>
      </trkpt>
      <trkpt lat="47.02586" lon="6.27507">
        <ele>755</ele>
        <time>2019-04-18T09:34:53Z</time>
      </trkpt>
      <trkpt lat="47.02592" lon="6.2752">
        <ele>754</ele>
        <time>2019-04-18T09:35:04Z</time>
      </trkpt>
      <trkpt lat="47.026" lon="6.2754">
        <ele>753</ele>
        <time>2019-04-18T09:35:21Z</time>
      </trkpt>
      <trkpt lat="47.02605" lon="6.27552">
        <ele>752</ele>
        <time>2019-04-18T09:35:30Z</time>
      </trkpt>
      <trkpt lat="47.02612" lon="6.27562">
        <ele>752</ele>
        <time>2019-04-18T09:35:40Z</time>
      </trkpt>
      <trkpt lat="47.02613" lon="6.27575">
        <ele>752</ele>
        <time>2019-04-18T09:35:47Z</time>
      </trkpt>
      <trkpt lat="47.02622" lon="6.27614">
        <ele>748</ele>
        <time>2019-04-18T09:36:25Z</time>
      </trkpt>
      <trkpt lat="47.02625" lon="6.27626">
        <ele>747</ele>
        <time>2019-04-18T09:36:34Z</time>
      </trkpt>
      <trkpt lat="47.02629" lon="6.2764">
        <ele>747</ele>
        <time>2019-04-18T09:36:42Z</time>
      </trkpt>
      <trkpt lat="47.02633" lon="6.27656">
        <ele>745</ele>
        <time>2019-04-18T09:36:55Z</time>
      </trkpt>
      <trkpt lat="47.02633" lon="6.27669">
        <ele>745</ele>
        <time>2019-04-18T09:37:04Z</time>
      </trkpt>
      <trkpt lat="47.02636" lon="6.27682">
        <ele>745</ele>
        <time>2019-04-18T09:37:18Z</time>
      </trkpt>
      <trkpt lat="47.02621" lon="6.27697">
        <ele>745</ele>
        <time>2019-04-18T09:37:45Z</time>
      </trkpt>
      <trkpt lat="47.02617" lon="6.27696">
        <ele>745</ele>
        <time>2019-04-18T09:37:48Z</time>
      </trkpt>
      <trkpt lat="47.02605" lon="6.27697">
        <ele>741</ele>
        <time>2019-04-18T09:38:04Z</time>
      </trkpt>
      <trkpt lat="47.026" lon="6.27692">
        <ele>741</ele>
        <time>2019-04-18T09:38:11Z</time>
      </trkpt>
      <trkpt lat="47.02595" lon="6.2769">
        <ele>739</ele>
        <time>2019-04-18T09:38:20Z</time>
      </trkpt>
      <trkpt lat="47.0259" lon="6.27689">
        <ele>740</ele>
        <time>2019-04-18T09:38:26Z</time>
      </trkpt>
      <trkpt lat="47.02585" lon="6.27687">
        <ele>741</ele>
        <time>2019-04-18T09:38:31Z</time>
      </trkpt>
      <trkpt lat="47.0258" lon="6.27686">
        <ele>741</ele>
        <time>2019-04-18T09:38:39Z</time>
      </trkpt>
      <trkpt lat="47.02562" lon="6.27654">
        <ele>746</ele>
        <time>2019-04-18T09:39:15Z</time>
      </trkpt>
      <trkpt lat="47.02559" lon="6.27642">
        <ele>747</ele>
        <time>2019-04-18T09:39:22Z</time>
      </trkpt>
      <trkpt lat="47.02551" lon="6.27634">
        <ele>748</ele>
        <time>2019-04-18T09:39:29Z</time>
      </trkpt>
      <trkpt lat="47.02545" lon="6.27622">
        <ele>748</ele>
        <time>2019-04-18T09:39:37Z</time>
      </trkpt>
      <trkpt lat="47.02538" lon="6.27615">
        <ele>748</ele>
        <time>2019-04-18T09:39:44Z</time>
      </trkpt>
      <trkpt lat="47.0253" lon="6.27607">
        <ele>749</ele>
        <time>2019-04-18T09:39:59Z</time>
      </trkpt>
      <trkpt lat="47.02526" lon="6.2761">
        <ele>750</ele>
        <time>2019-04-18T09:40:41Z</time>
      </trkpt>
      <trkpt lat="47.02521" lon="6.27619">
        <ele>752</ele>
        <time>2019-04-18T09:41:15Z</time>
      </trkpt>
      <trkpt lat="47.02518" lon="6.27625">
        <ele>754</ele>
        <time>2019-04-18T09:41:20Z</time>
      </trkpt>
      <trkpt lat="47.02514" lon="6.27628">
        <ele>753</ele>
        <time>2019-04-18T09:41:25Z</time>
      </trkpt>
      <trkpt lat="47.0251" lon="6.27632">
        <ele>754</ele>
        <time>2019-04-18T09:41:32Z</time>
      </trkpt>
      <trkpt lat="47.0251" lon="6.27639">
        <ele>754</ele>
        <time>2019-04-18T09:41:38Z</time>
      </trkpt>
      <trkpt lat="47.02513" lon="6.27645">
        <ele>754</ele>
        <time>2019-04-18T09:41:43Z</time>
      </trkpt>
      <trkpt lat="47.02516" lon="6.27654">
        <ele>755</ele>
        <time>2019-04-18T09:41:49Z</time>
      </trkpt>
      <trkpt lat="47.0252" lon="6.27659">
        <ele>755</ele>
        <time>2019-04-18T09:41:52Z</time>
      </trkpt>
      <trkpt lat="47.02524" lon="6.27668">
        <ele>756</ele>
        <time>2019-04-18T09:42:00Z</time>
      </trkpt>
      <trkpt lat="47.02526" lon="6.27675">
        <ele>755</ele>
        <time>2019-04-18T09:42:04Z</time>
      </trkpt>
      <trkpt lat="47.02529" lon="6.27679">
        <ele>756</ele>
        <time>2019-04-18T09:42:09Z</time>
      </trkpt>
      <trkpt lat="47.02534" lon="6.27688">
        <ele>756</ele>
        <time>2019-04-18T09:42:16Z</time>
      </trkpt>
      <trkpt lat="47.02536" lon="6.27694">
        <ele>756</ele>
        <time>2019-04-18T09:42:20Z</time>
      </trkpt>
      <trkpt lat="47.0254" lon="6.27702">
        <ele>756</ele>
        <time>2019-04-18T09:42:27Z</time>
      </trkpt>
      <trkpt lat="47.02543" lon="6.27708">
        <ele>756</ele>
        <time>2019-04-18T09:42:31Z</time>
      </trkpt>
      <trkpt lat="47.02547" lon="6.27714">
        <ele>756</ele>
        <time>2019-04-18T09:42:39Z</time>
      </trkpt>
      <trkpt lat="47.02554" lon="6.2772">
        <ele>757</ele>
        <time>2019-04-18T09:42:49Z</time>
      </trkpt>
      <trkpt lat="47.02555" lon="6.27728">
        <ele>758</ele>
        <time>2019-04-18T09:42:54Z</time>
      </trkpt>
      <trkpt lat="47.02554" lon="6.27735">
        <ele>759</ele>
        <time>2019-04-18T09:42:59Z</time>
      </trkpt>
      <trkpt lat="47.02556" lon="6.27741">
        <ele>759</ele>
        <time>2019-04-18T09:43:04Z</time>
      </trkpt>
      <trkpt lat="47.02557" lon="6.27748">
        <ele>758</ele>
        <time>2019-04-18T09:43:09Z</time>
      </trkpt>
      <trkpt lat="47.02559" lon="6.27764">
        <ele>758</ele>
        <time>2019-04-18T09:43:20Z</time>
      </trkpt>
      <trkpt lat="47.02561" lon="6.2777">
        <ele>759</ele>
        <time>2019-04-18T09:43:25Z</time>
      </trkpt>
      <trkpt lat="47.02565" lon="6.27775">
        <ele>759</ele>
        <time>2019-04-18T09:43:30Z</time>
      </trkpt>
      <trkpt lat="47.02571" lon="6.27793">
        <ele>758</ele>
        <time>2019-04-18T09:43:45Z</time>
      </trkpt>
      <trkpt lat="47.02574" lon="6.27811">
        <ele>760</ele>
        <time>2019-04-18T09:43:56Z</time>
      </trkpt>
      <trkpt lat="47.02575" lon="6.27825">
        <ele>759</ele>
        <time>2019-04-18T09:44:05Z</time>
      </trkpt>
      <trkpt lat="47.02575" lon="6.27839">
        <ele>759</ele>
        <time>2019-04-18T09:44:13Z</time>
      </trkpt>
      <trkpt lat="47.02572" lon="6.2786">
        <ele>758</ele>
        <time>2019-04-18T09:44:29Z</time>
      </trkpt>
      <trkpt lat="47.02568" lon="6.27873">
        <ele>758</ele>
        <time>2019-04-18T09:44:39Z</time>
      </trkpt>
      <trkpt lat="47.02562" lon="6.27884">
        <ele>758</ele>
        <time>2019-04-18T09:44:48Z</time>
      </trkpt>
      <trkpt lat="47.02559" lon="6.27893">
        <ele>759</ele>
        <time>2019-04-18T09:44:55Z</time>
      </trkpt>
      <trkpt lat="47.02558" lon="6.27911">
        <ele>759</ele>
        <time>2019-04-18T09:45:07Z</time>
      </trkpt>
      <trkpt lat="47.02551" lon="6.27926">
        <ele>759</ele>
        <time>2019-04-18T09:45:21Z</time>
      </trkpt>
      <trkpt lat="47.02547" lon="6.2793">
        <ele>759</ele>
        <time>2019-04-18T09:45:25Z</time>
      </trkpt>
      <trkpt lat="47.02542" lon="6.27942">
        <ele>757</ele>
        <time>2019-04-18T09:45:36Z</time>
      </trkpt>
      <trkpt lat="47.0254" lon="6.27949">
        <ele>757</ele>
        <time>2019-04-18T09:45:41Z</time>
      </trkpt>
      <trkpt lat="47.02538" lon="6.27962">
        <ele>758</ele>
        <time>2019-04-18T09:45:51Z</time>
      </trkpt>
      <trkpt lat="47.02533" lon="6.27969">
        <ele>757</ele>
        <time>2019-04-18T09:45:58Z</time>
      </trkpt>
      <trkpt lat="47.02536" lon="6.27978">
        <ele>757</ele>
        <time>2019-04-18T09:46:08Z</time>
      </trkpt>
      <trkpt lat="47.02536" lon="6.27985">
        <ele>757</ele>
        <time>2019-04-18T09:46:14Z</time>
      </trkpt>
      <trkpt lat="47.02537" lon="6.27993">
        <ele>756</ele>
        <time>2019-04-18T09:46:19Z</time>
      </trkpt>
      <trkpt lat="47.0254" lon="6.28004">
        <ele>756</ele>
        <time>2019-04-18T09:46:29Z</time>
      </trkpt>
      <trkpt lat="47.02536" lon="6.28011">
        <ele>752</ele>
        <time>2019-04-18T09:47:25Z</time>
      </trkpt>
      <trkpt lat="47.0253" lon="6.28012">
        <ele>753</ele>
        <time>2019-04-18T09:47:37Z</time>
      </trkpt>
      <trkpt lat="47.02524" lon="6.28015">
        <ele>751</ele>
        <time>2019-04-18T09:47:45Z</time>
      </trkpt>
      <trkpt lat="47.02514" lon="6.28021">
        <ele>751</ele>
        <time>2019-04-18T09:47:53Z</time>
      </trkpt>
      <trkpt lat="47.02509" lon="6.28022">
        <ele>750</ele>
        <time>2019-04-18T09:47:58Z</time>
      </trkpt>
      <trkpt lat="47.02504" lon="6.28024">
        <ele>751</ele>
        <time>2019-04-18T09:48:03Z</time>
      </trkpt>
      <trkpt lat="47.02492" lon="6.28032">
        <ele>752</ele>
        <time>2019-04-18T09:48:15Z</time>
      </trkpt>
      <trkpt lat="47.02488" lon="6.28035">
        <ele>752</ele>
        <time>2019-04-18T09:48:19Z</time>
      </trkpt>
      <trkpt lat="47.0248" lon="6.28047">
        <ele>750</ele>
        <time>2019-04-18T09:48:28Z</time>
      </trkpt>
      <trkpt lat="47.02481" lon="6.28054">
        <ele>749</ele>
        <time>2019-04-18T09:48:33Z</time>
      </trkpt>
      <trkpt lat="47.02475" lon="6.28067">
        <ele>748</ele>
        <time>2019-04-18T09:48:44Z</time>
      </trkpt>
      <trkpt lat="47.02475" lon="6.28076">
        <ele>748</ele>
        <time>2019-04-18T09:48:49Z</time>
      </trkpt>
      <trkpt lat="47.02474" lon="6.2809">
        <ele>746</ele>
        <time>2019-04-18T09:48:59Z</time>
      </trkpt>
      <trkpt lat="47.02472" lon="6.28098">
        <ele>746</ele>
        <time>2019-04-18T09:49:06Z</time>
      </trkpt>
      <trkpt lat="47.0247" lon="6.28104">
        <ele>744</ele>
        <time>2019-04-18T09:49:39Z</time>
      </trkpt>
      <trkpt lat="47.02464" lon="6.2811">
        <ele>740</ele>
        <time>2019-04-18T09:49:51Z</time>
      </trkpt>
      <trkpt lat="47.02458" lon="6.28118">
        <ele>738</ele>
        <time>2019-04-18T09:50:03Z</time>
      </trkpt>
      <trkpt lat="47.02456" lon="6.28136">
        <ele>736</ele>
        <time>2019-04-18T09:50:21Z</time>
      </trkpt>
      <trkpt lat="47.02452" lon="6.28143">
        <ele>733</ele>
        <time>2019-04-18T09:50:33Z</time>
      </trkpt>
      <trkpt lat="47.02449" lon="6.28148">
        <ele>733</ele>
        <time>2019-04-18T09:50:38Z</time>
      </trkpt>
      <trkpt lat="47.02432" lon="6.28159">
        <ele>731</ele>
        <time>2019-04-18T09:50:59Z</time>
      </trkpt>
      <trkpt lat="47.02428" lon="6.28162">
        <ele>731</ele>
        <time>2019-04-18T09:51:03Z</time>
      </trkpt>
      <trkpt lat="47.02419" lon="6.2817">
        <ele>730</ele>
        <time>2019-04-18T09:51:13Z</time>
      </trkpt>
      <trkpt lat="47.02417" lon="6.28177">
        <ele>731</ele>
        <time>2019-04-18T09:51:18Z</time>
      </trkpt>
      <trkpt lat="47.02412" lon="6.28192">
        <ele>729</ele>
        <time>2019-04-18T09:51:36Z</time>
      </trkpt>
      <trkpt lat="47.02407" lon="6.28197">
        <ele>730</ele>
        <time>2019-04-18T09:51:42Z</time>
      </trkpt>
      <trkpt lat="47.02402" lon="6.28206">
        <ele>729</ele>
        <time>2019-04-18T09:51:50Z</time>
      </trkpt>
      <trkpt lat="47.02399" lon="6.28211">
        <ele>730</ele>
        <time>2019-04-18T09:51:55Z</time>
      </trkpt>
      <trkpt lat="47.02397" lon="6.28218">
        <ele>729</ele>
        <time>2019-04-18T09:52:03Z</time>
      </trkpt>
      <trkpt lat="47.0239" lon="6.28226">
        <ele>731</ele>
        <time>2019-04-18T09:52:21Z</time>
      </trkpt>
      <trkpt lat="47.0238" lon="6.28234">
        <ele>731</ele>
        <time>2019-04-18T09:52:31Z</time>
      </trkpt>
      <trkpt lat="47.02377" lon="6.28239">
        <ele>732</ele>
        <time>2019-04-18T09:52:36Z</time>
      </trkpt>
      <trkpt lat="47.0238" lon="6.28239">
        <ele>716</ele>
        <time>2019-04-18T09:54:26Z</time>
      </trkpt>
      <trkpt lat="47.02378" lon="6.2824">
        <ele>720</ele>
        <time>2019-04-18T09:57:19Z</time>
      </trkpt>
      <trkpt lat="47.02375" lon="6.28235">
        <ele>719</ele>
        <time>2019-04-18T09:58:07Z</time>
      </trkpt>
      <trkpt lat="47.02374" lon="6.28235">
        <ele>713</ele>
        <time>2019-04-18T10:04:40Z</time>
      </trkpt>
      <trkpt lat="47.0237" lon="6.28245">
        <ele>721</ele>
        <time>2019-04-18T10:09:39Z</time>
      </trkpt>
      <trkpt lat="47.0236" lon="6.28249">
        <ele>721</ele>
        <time>2019-04-18T10:15:39Z</time>
      </trkpt>
      <trkpt lat="47.02359" lon="6.2825">
        <ele>723</ele>
        <time>2019-04-18T10:22:17Z</time>
      </trkpt>
      <trkpt lat="47.02365" lon="6.28249">
        <ele>727</ele>
        <time>2019-04-18T10:23:20Z</time>
      </trkpt>
      <trkpt lat="47.02364" lon="6.28253">
        <ele>725</ele>
        <time>2019-04-18T10:25:15Z</time>
      </trkpt>
      <trkpt lat="47.02367" lon="6.28245">
        <ele>731</ele>
        <time>2019-04-18T10:38:11Z</time>
      </trkpt>
      <trkpt lat="47.02353" lon="6.28255">
        <ele>728</ele>
        <time>2019-04-18T10:38:33Z</time>
      </trkpt>
      <trkpt lat="47.02348" lon="6.28256">
        <ele>729</ele>
        <time>2019-04-18T10:38:37Z</time>
      </trkpt>
      <trkpt lat="47.02339" lon="6.28259">
        <ele>728</ele>
        <time>2019-04-18T10:38:45Z</time>
      </trkpt>
      <trkpt lat="47.02334" lon="6.2826">
        <ele>728</ele>
        <time>2019-04-18T10:38:49Z</time>
      </trkpt>
      <trkpt lat="47.02329" lon="6.2826">
        <ele>729</ele>
        <time>2019-04-18T10:38:53Z</time>
      </trkpt>
      <trkpt lat="47.02319" lon="6.28254">
        <ele>729</ele>
        <time>2019-04-18T10:39:05Z</time>
      </trkpt>
      <trkpt lat="47.02313" lon="6.28252">
        <ele>729</ele>
        <time>2019-04-18T10:39:11Z</time>
      </trkpt>
      <trkpt lat="47.02304" lon="6.28253">
        <ele>729</ele>
        <time>2019-04-18T10:39:21Z</time>
      </trkpt>
      <trkpt lat="47.02293" lon="6.2826">
        <ele>726</ele>
        <time>2019-04-18T10:39:33Z</time>
      </trkpt>
      <trkpt lat="47.02281" lon="6.28279">
        <ele>722</ele>
        <time>2019-04-18T10:39:55Z</time>
      </trkpt>
      <trkpt lat="47.02274" lon="6.28291">
        <ele>722</ele>
        <time>2019-04-18T10:40:04Z</time>
      </trkpt>
      <trkpt lat="47.02271" lon="6.28295">
        <ele>720</ele>
        <time>2019-04-18T10:40:14Z</time>
      </trkpt>
      <trkpt lat="47.02265" lon="6.28292">
        <ele>719</ele>
        <time>2019-04-18T10:40:38Z</time>
      </trkpt>
      <trkpt lat="47.02261" lon="6.28289">
        <ele>719</ele>
        <time>2019-04-18T10:40:43Z</time>
      </trkpt>
      <trkpt lat="47.02257" lon="6.28284">
        <ele>720</ele>
        <time>2019-04-18T10:40:47Z</time>
      </trkpt>
      <trkpt lat="47.02253" lon="6.2828">
        <ele>718</ele>
        <time>2019-04-18T10:40:52Z</time>
      </trkpt>
      <trkpt lat="47.02248" lon="6.28275">
        <ele>718</ele>
        <time>2019-04-18T10:41:00Z</time>
      </trkpt>
      <trkpt lat="47.02242" lon="6.28263">
        <ele>718</ele>
        <time>2019-04-18T10:41:08Z</time>
      </trkpt>
      <trkpt lat="47.0224" lon="6.28258">
        <ele>718</ele>
        <time>2019-04-18T10:41:12Z</time>
      </trkpt>
      <trkpt lat="47.02237" lon="6.28251">
        <ele>718</ele>
        <time>2019-04-18T10:41:16Z</time>
      </trkpt>
      <trkpt lat="47.02234" lon="6.28246">
        <ele>719</ele>
        <time>2019-04-18T10:41:19Z</time>
      </trkpt>
      <trkpt lat="47.02231" lon="6.28242">
        <ele>719</ele>
        <time>2019-04-18T10:41:22Z</time>
      </trkpt>
      <trkpt lat="47.02226" lon="6.28237">
        <ele>718</ele>
        <time>2019-04-18T10:41:26Z</time>
      </trkpt>
      <trkpt lat="47.02218" lon="6.28226">
        <ele>719</ele>
        <time>2019-04-18T10:41:34Z</time>
      </trkpt>
      <trkpt lat="47.0221" lon="6.28227">
        <ele>719</ele>
        <time>2019-04-18T10:41:43Z</time>
      </trkpt>
      <trkpt lat="47.02206" lon="6.28229">
        <ele>718</ele>
        <time>2019-04-18T10:41:48Z</time>
      </trkpt>
      <trkpt lat="47.02201" lon="6.28229">
        <ele>718</ele>
        <time>2019-04-18T10:41:52Z</time>
      </trkpt>
      <trkpt lat="47.02197" lon="6.28229">
        <ele>717</ele>
        <time>2019-04-18T10:41:57Z</time>
      </trkpt>
      <trkpt lat="47.02191" lon="6.28231">
        <ele>717</ele>
        <time>2019-04-18T10:42:04Z</time>
      </trkpt>
      <trkpt lat="47.02183" lon="6.28235">
        <ele>716</ele>
        <time>2019-04-18T10:42:12Z</time>
      </trkpt>
      <trkpt lat="47.02177" lon="6.28236">
        <ele>716</ele>
        <time>2019-04-18T10:42:16Z</time>
      </trkpt>
      <trkpt lat="47.02172" lon="6.28236">
        <ele>717</ele>
        <time>2019-04-18T10:42:19Z</time>
      </trkpt>
      <trkpt lat="47.02167" lon="6.28235">
        <ele>717</ele>
        <time>2019-04-18T10:42:23Z</time>
      </trkpt>
      <trkpt lat="47.02163" lon="6.28233">
        <ele>716</ele>
        <time>2019-04-18T10:42:28Z</time>
      </trkpt>
      <trkpt lat="47.02159" lon="6.28228">
        <ele>715</ele>
        <time>2019-04-18T10:42:35Z</time>
      </trkpt>
      <trkpt lat="47.02145" lon="6.28229">
        <ele>715</ele>
        <time>2019-04-18T10:42:49Z</time>
      </trkpt>
      <trkpt lat="47.02136" lon="6.2823">
        <ele>713</ele>
        <time>2019-04-18T10:42:57Z</time>
      </trkpt>
      <trkpt lat="47.02127" lon="6.28226">
        <ele>713</ele>
        <time>2019-04-18T10:43:06Z</time>
      </trkpt>
      <trkpt lat="47.02118" lon="6.28225">
        <ele>713</ele>
        <time>2019-04-18T10:43:15Z</time>
      </trkpt>
      <trkpt lat="47.02106" lon="6.28223">
        <ele>714</ele>
        <time>2019-04-18T10:43:27Z</time>
      </trkpt>
      <trkpt lat="47.02097" lon="6.28226">
        <ele>712</ele>
        <time>2019-04-18T10:43:38Z</time>
      </trkpt>
      <trkpt lat="47.02089" lon="6.28235">
        <ele>712</ele>
        <time>2019-04-18T10:43:48Z</time>
      </trkpt>
      <trkpt lat="47.02087" lon="6.28239">
        <ele>712</ele>
        <time>2019-04-18T10:43:53Z</time>
      </trkpt>
      <trkpt lat="47.02083" lon="6.28248">
        <ele>711</ele>
        <time>2019-04-18T10:44:00Z</time>
      </trkpt>
      <trkpt lat="47.02058" lon="6.28276">
        <ele>708</ele>
        <time>2019-04-18T10:44:27Z</time>
      </trkpt>
      <trkpt lat="47.02055" lon="6.28282">
        <ele>708</ele>
        <time>2019-04-18T10:44:31Z</time>
      </trkpt>
      <trkpt lat="47.02037" lon="6.28299">
        <ele>708</ele>
        <time>2019-04-18T10:44:49Z</time>
      </trkpt>
      <trkpt lat="47.02025" lon="6.28312">
        <ele>706</ele>
        <time>2019-04-18T10:45:03Z</time>
      </trkpt>
      <trkpt lat="47.02017" lon="6.28319">
        <ele>706</ele>
        <time>2019-04-18T10:45:13Z</time>
      </trkpt>
      <trkpt lat="47.02002" lon="6.28335">
        <ele>705</ele>
        <time>2019-04-18T10:45:29Z</time>
      </trkpt>
      <trkpt lat="47.01996" lon="6.28342">
        <ele>706</ele>
        <time>2019-04-18T10:45:39Z</time>
      </trkpt>
      <trkpt lat="47.01986" lon="6.28359">
        <ele>703</ele>
        <time>2019-04-18T10:45:55Z</time>
      </trkpt>
      <trkpt lat="47.01981" lon="6.2837">
        <ele>703</ele>
        <time>2019-04-18T10:46:02Z</time>
      </trkpt>
      <trkpt lat="47.0197" lon="6.28392">
        <ele>703</ele>
        <time>2019-04-18T10:46:18Z</time>
      </trkpt>
      <trkpt lat="47.01961" lon="6.28399">
        <ele>702</ele>
        <time>2019-04-18T10:46:28Z</time>
      </trkpt>
      <trkpt lat="47.01936" lon="6.28441">
        <ele>701</ele>
        <time>2019-04-18T10:47:02Z</time>
      </trkpt>
      <trkpt lat="47.01925" lon="6.28456">
        <ele>701</ele>
        <time>2019-04-18T10:47:17Z</time>
      </trkpt>
      <trkpt lat="47.01908" lon="6.28472">
        <ele>701</ele>
        <time>2019-04-18T10:47:27Z</time>
      </trkpt>
      <trkpt lat="47.01903" lon="6.28482">
        <ele>702</ele>
        <time>2019-04-18T10:47:36Z</time>
      </trkpt>
      <trkpt lat="47.01889" lon="6.28505">
        <ele>700</ele>
        <time>2019-04-18T10:47:57Z</time>
      </trkpt>
      <trkpt lat="47.01887" lon="6.28519">
        <ele>700</ele>
        <time>2019-04-18T10:48:04Z</time>
      </trkpt>
      <trkpt lat="47.01887" lon="6.28532">
        <ele>700</ele>
        <time>2019-04-18T10:48:14Z</time>
      </trkpt>
      <trkpt lat="47.01886" lon="6.28549">
        <ele>699</ele>
        <time>2019-04-18T10:48:24Z</time>
      </trkpt>
      <trkpt lat="47.01881" lon="6.28562">
        <ele>698</ele>
        <time>2019-04-18T10:48:32Z</time>
      </trkpt>
      <trkpt lat="47.01873" lon="6.28571">
        <ele>698</ele>
        <time>2019-04-18T10:48:41Z</time>
      </trkpt>
      <trkpt lat="47.01868" lon="6.28583">
        <ele>698</ele>
        <time>2019-04-18T10:48:50Z</time>
      </trkpt>
      <trkpt lat="47.01856" lon="6.28632">
        <ele>694</ele>
        <time>2019-04-18T10:49:27Z</time>
      </trkpt>
      <trkpt lat="47.01853" lon="6.28645">
        <ele>693</ele>
        <time>2019-04-18T10:49:36Z</time>
      </trkpt>
      <trkpt lat="47.01835" lon="6.28652">
        <ele>693</ele>
        <time>2019-04-18T10:49:55Z</time>
      </trkpt>
      <trkpt lat="47.01831" lon="6.28666">
        <ele>693</ele>
        <time>2019-04-18T10:50:02Z</time>
      </trkpt>
      <trkpt lat="47.01833" lon="6.28678">
        <ele>693</ele>
        <time>2019-04-18T10:50:10Z</time>
      </trkpt>
      <trkpt lat="47.01833" lon="6.28692">
        <ele>692</ele>
        <time>2019-04-18T10:50:20Z</time>
      </trkpt>
      <trkpt lat="47.01836" lon="6.28708">
        <ele>692</ele>
        <time>2019-04-18T10:50:32Z</time>
      </trkpt>
      <trkpt lat="47.01836" lon="6.28727">
        <ele>692</ele>
        <time>2019-04-18T10:50:41Z</time>
      </trkpt>
      <trkpt lat="47.01835" lon="6.28739">
        <ele>691</ele>
        <time>2019-04-18T10:50:48Z</time>
      </trkpt>
      <trkpt lat="47.01832" lon="6.28751">
        <ele>690</ele>
        <time>2019-04-18T10:51:03Z</time>
      </trkpt>
      <trkpt lat="47.01828" lon="6.28768">
        <ele>691</ele>
        <time>2019-04-18T10:51:23Z</time>
      </trkpt>
      <trkpt lat="47.01818" lon="6.28771">
        <ele>693</ele>
        <time>2019-04-18T10:51:35Z</time>
      </trkpt>
      <trkpt lat="47.01802" lon="6.28771">
        <ele>693</ele>
        <time>2019-04-18T10:51:54Z</time>
      </trkpt>
      <trkpt lat="47.01786" lon="6.28762">
        <ele>695</ele>
        <time>2019-04-18T10:52:11Z</time>
      </trkpt>
      <trkpt lat="47.01777" lon="6.28759">
        <ele>696</ele>
        <time>2019-04-18T10:52:18Z</time>
      </trkpt>
      <trkpt lat="47.01768" lon="6.28754">
        <ele>697</ele>
        <time>2019-04-18T10:52:26Z</time>
      </trkpt>
      <trkpt lat="47.01759" lon="6.28762">
        <ele>697</ele>
        <time>2019-04-18T10:52:34Z</time>
      </trkpt>
      <trkpt lat="47.01752" lon="6.28803">
        <ele>698</ele>
        <time>2019-04-18T10:52:55Z</time>
      </trkpt>
      <trkpt lat="47.01745" lon="6.28841">
        <ele>700</ele>
        <time>2019-04-18T10:53:13Z</time>
      </trkpt>
      <trkpt lat="47.0174" lon="6.28864">
        <ele>699</ele>
        <time>2019-04-18T10:53:31Z</time>
      </trkpt>
      <trkpt lat="47.01735" lon="6.28875">
        <ele>699</ele>
        <time>2019-04-18T10:53:39Z</time>
      </trkpt>
      <trkpt lat="47.017" lon="6.28918">
        <ele>698</ele>
        <time>2019-04-18T10:54:22Z</time>
      </trkpt>
      <trkpt lat="47.01691" lon="6.28921">
        <ele>698</ele>
        <time>2019-04-18T10:54:28Z</time>
      </trkpt>
      <trkpt lat="47.01683" lon="6.28924">
        <ele>698</ele>
        <time>2019-04-18T10:54:36Z</time>
      </trkpt>
      <trkpt lat="47.01643" lon="6.28913">
        <ele>698</ele>
        <time>2019-04-18T10:55:06Z</time>
      </trkpt>
      <trkpt lat="47.01625" lon="6.28918">
        <ele>698</ele>
        <time>2019-04-18T10:55:21Z</time>
      </trkpt>
      <trkpt lat="47.01591" lon="6.28943">
        <ele>694</ele>
        <time>2019-04-18T10:55:54Z</time>
      </trkpt>
      <trkpt lat="47.01583" lon="6.28952">
        <ele>693</ele>
        <time>2019-04-18T10:56:01Z</time>
      </trkpt>
      <trkpt lat="47.01573" lon="6.28967">
        <ele>689</ele>
        <time>2019-04-18T10:56:18Z</time>
      </trkpt>
      <trkpt lat="47.0155" lon="6.28984">
        <ele>686</ele>
        <time>2019-04-18T10:56:38Z</time>
      </trkpt>
      <trkpt lat="47.01539" lon="6.28986">
        <ele>685</ele>
        <time>2019-04-18T10:56:47Z</time>
      </trkpt>
      <trkpt lat="47.01535" lon="6.28989">
        <ele>685</ele>
        <time>2019-04-18T10:56:51Z</time>
      </trkpt>
      <trkpt lat="47.01524" lon="6.28998">
        <ele>686</ele>
        <time>2019-04-18T10:57:05Z</time>
      </trkpt>
      <trkpt lat="47.01519" lon="6.29002">
        <ele>686</ele>
        <time>2019-04-18T10:57:10Z</time>
      </trkpt>
      <trkpt lat="47.01515" lon="6.29006">
        <ele>686</ele>
        <time>2019-04-18T10:57:14Z</time>
      </trkpt>
      <trkpt lat="47.01511" lon="6.29006">
        <ele>685</ele>
        <time>2019-04-18T10:57:17Z</time>
      </trkpt>
      <trkpt lat="47.01505" lon="6.29004">
        <ele>685</ele>
        <time>2019-04-18T10:57:22Z</time>
      </trkpt>
      <trkpt lat="47.015" lon="6.29004">
        <ele>686</ele>
        <time>2019-04-18T10:57:26Z</time>
      </trkpt>
      <trkpt lat="47.01493" lon="6.29006">
        <ele>686</ele>
        <time>2019-04-18T10:57:32Z</time>
      </trkpt>
      <trkpt lat="47.01488" lon="6.29009">
        <ele>686</ele>
        <time>2019-04-18T10:57:36Z</time>
      </trkpt>
      <trkpt lat="47.01479" lon="6.29018">
        <ele>687</ele>
        <time>2019-04-18T10:57:56Z</time>
      </trkpt>
      <trkpt lat="47.01472" lon="6.29028">
        <ele>687</ele>
        <time>2019-04-18T10:58:06Z</time>
      </trkpt>
      <trkpt lat="47.01453" lon="6.29043">
        <ele>688</ele>
        <time>2019-04-18T10:58:26Z</time>
      </trkpt>
      <trkpt lat="47.01441" lon="6.29047">
        <ele>689</ele>
        <time>2019-04-18T10:58:42Z</time>
      </trkpt>
      <trkpt lat="47.01433" lon="6.29061">
        <ele>690</ele>
        <time>2019-04-18T10:58:58Z</time>
      </trkpt>
      <trkpt lat="47.01427" lon="6.29072">
        <ele>690</ele>
        <time>2019-04-18T10:59:04Z</time>
      </trkpt>
      <trkpt lat="47.01428" lon="6.29086">
        <ele>688</ele>
        <time>2019-04-18T10:59:12Z</time>
      </trkpt>
      <trkpt lat="47.01426" lon="6.29099">
        <ele>688</ele>
        <time>2019-04-18T10:59:21Z</time>
      </trkpt>
      <trkpt lat="47.01412" lon="6.29128">
        <ele>690</ele>
        <time>2019-04-18T10:59:45Z</time>
      </trkpt>
      <trkpt lat="47.01414" lon="6.29142">
        <ele>690</ele>
        <time>2019-04-18T10:59:54Z</time>
      </trkpt>
      <trkpt lat="47.01409" lon="6.29154">
        <ele>689</ele>
        <time>2019-04-18T11:00:04Z</time>
      </trkpt>
      <trkpt lat="47.01401" lon="6.29161">
        <ele>688</ele>
        <time>2019-04-18T11:00:13Z</time>
      </trkpt>
      <trkpt lat="47.01398" lon="6.29177">
        <ele>687</ele>
        <time>2019-04-18T11:00:28Z</time>
      </trkpt>
      <trkpt lat="47.01389" lon="6.29181">
        <ele>686</ele>
        <time>2019-04-18T11:00:36Z</time>
      </trkpt>
      <trkpt lat="47.01385" lon="6.29194">
        <ele>687</ele>
        <time>2019-04-18T11:00:45Z</time>
      </trkpt>
      <trkpt lat="47.01387" lon="6.29208">
        <ele>687</ele>
        <time>2019-04-18T11:00:53Z</time>
      </trkpt>
      <trkpt lat="47.01382" lon="6.29221">
        <ele>686</ele>
        <time>2019-04-18T11:01:00Z</time>
      </trkpt>
      <trkpt lat="47.01373" lon="6.29252">
        <ele>684</ele>
        <time>2019-04-18T11:01:27Z</time>
      </trkpt>
      <trkpt lat="47.01356" lon="6.29279">
        <ele>683</ele>
        <time>2019-04-18T11:01:53Z</time>
      </trkpt>
      <trkpt lat="47.0135" lon="6.29288">
        <ele>680</ele>
        <time>2019-04-18T11:02:04Z</time>
      </trkpt>
      <trkpt lat="47.01351" lon="6.29305">
        <ele>681</ele>
        <time>2019-04-18T11:02:15Z</time>
      </trkpt>
      <trkpt lat="47.01336" lon="6.2932">
        <ele>679</ele>
        <time>2019-04-18T11:02:26Z</time>
      </trkpt>
      <trkpt lat="47.01332" lon="6.29347">
        <ele>675</ele>
        <time>2019-04-18T11:02:41Z</time>
      </trkpt>
      <trkpt lat="47.01327" lon="6.2936">
        <ele>674</ele>
        <time>2019-04-18T11:02:55Z</time>
      </trkpt>
      <trkpt lat="47.01321" lon="6.29372">
        <ele>674</ele>
        <time>2019-04-18T11:03:03Z</time>
      </trkpt>
      <trkpt lat="47.01314" lon="6.29382">
        <ele>674</ele>
        <time>2019-04-18T11:03:12Z</time>
      </trkpt>
      <trkpt lat="47.01312" lon="6.29401">
        <ele>673</ele>
        <time>2019-04-18T11:03:28Z</time>
      </trkpt>
      <trkpt lat="47.01306" lon="6.29426">
        <ele>671</ele>
        <time>2019-04-18T11:03:47Z</time>
      </trkpt>
      <trkpt lat="47.01297" lon="6.29467">
        <ele>669</ele>
        <time>2019-04-18T11:04:12Z</time>
      </trkpt>
      <trkpt lat="47.01293" lon="6.29481">
        <ele>669</ele>
        <time>2019-04-18T11:04:20Z</time>
      </trkpt>
      <trkpt lat="47.01291" lon="6.29494">
        <ele>670</ele>
        <time>2019-04-18T11:04:27Z</time>
      </trkpt>
      <trkpt lat="47.01289" lon="6.29509">
        <ele>669</ele>
        <time>2019-04-18T11:04:43Z</time>
      </trkpt>
      <trkpt lat="47.0127" lon="6.29548">
        <ele>667</ele>
        <time>2019-04-18T11:05:15Z</time>
      </trkpt>
      <trkpt lat="47.01264" lon="6.29559">
        <ele>667</ele>
        <time>2019-04-18T11:05:25Z</time>
      </trkpt>
      <trkpt lat="47.01258" lon="6.29568">
        <ele>666</ele>
        <time>2019-04-18T11:05:34Z</time>
      </trkpt>
      <trkpt lat="47.01249" lon="6.29569">
        <ele>667</ele>
        <time>2019-04-18T11:05:44Z</time>
      </trkpt>
      <trkpt lat="47.01238" lon="6.2957">
        <ele>666</ele>
        <time>2019-04-18T11:05:57Z</time>
      </trkpt>
      <trkpt lat="47.01232" lon="6.29572">
        <ele>666</ele>
        <time>2019-04-18T11:06:02Z</time>
      </trkpt>
      <trkpt lat="47.01227" lon="6.29573">
        <ele>667</ele>
        <time>2019-04-18T11:06:07Z</time>
      </trkpt>
      <trkpt lat="47.01222" lon="6.29573">
        <ele>667</ele>
        <time>2019-04-18T11:06:12Z</time>
      </trkpt>
      <trkpt lat="47.01213" lon="6.29574">
        <ele>668</ele>
        <time>2019-04-18T11:06:20Z</time>
      </trkpt>
      <trkpt lat="47.01208" lon="6.29575">
        <ele>668</ele>
        <time>2019-04-18T11:06:25Z</time>
      </trkpt>
      <trkpt lat="47.01198" lon="6.29578">
        <ele>669</ele>
        <time>2019-04-18T11:06:35Z</time>
      </trkpt>
      <trkpt lat="47.01194" lon="6.29572">
        <ele>668</ele>
        <time>2019-04-18T11:06:40Z</time>
      </trkpt>
      <trkpt lat="47.0118" lon="6.29548">
        <ele>669</ele>
        <time>2019-04-18T11:06:57Z</time>
      </trkpt>
      <trkpt lat="47.01173" lon="6.29533">
        <ele>670</ele>
        <time>2019-04-18T11:07:11Z</time>
      </trkpt>
      <trkpt lat="47.01159" lon="6.29522">
        <ele>670</ele>
        <time>2019-04-18T11:07:28Z</time>
      </trkpt>
      <trkpt lat="47.01138" lon="6.29516">
        <ele>671</ele>
        <time>2019-04-18T11:07:48Z</time>
      </trkpt>
      <trkpt lat="47.01128" lon="6.29513">
        <ele>670</ele>
        <time>2019-04-18T11:07:59Z</time>
      </trkpt>
      <trkpt lat="47.0112" lon="6.29504">
        <ele>670</ele>
        <time>2019-04-18T11:08:07Z</time>
      </trkpt>
      <trkpt lat="47.01092" lon="6.29477">
        <ele>671</ele>
        <time>2019-04-18T11:08:43Z</time>
      </trkpt>
      <trkpt lat="47.01085" lon="6.29467">
        <ele>670</ele>
        <time>2019-04-18T11:08:51Z</time>
      </trkpt>
      <trkpt lat="47.01075" lon="6.29464">
        <ele>670</ele>
        <time>2019-04-18T11:09:03Z</time>
      </trkpt>
      <trkpt lat="47.01045" lon="6.29434">
        <ele>672</ele>
        <time>2019-04-18T11:09:40Z</time>
      </trkpt>
      <trkpt lat="47.01035" lon="6.29432">
        <ele>671</ele>
        <time>2019-04-18T11:09:52Z</time>
      </trkpt>
      <trkpt lat="47.01025" lon="6.29424">
        <ele>672</ele>
        <time>2019-04-18T11:10:07Z</time>
      </trkpt>
      <trkpt lat="47.01018" lon="6.29412">
        <ele>672</ele>
        <time>2019-04-18T11:10:16Z</time>
      </trkpt>
      <trkpt lat="47.00995" lon="6.29371">
        <ele>677</ele>
        <time>2019-04-18T11:10:53Z</time>
      </trkpt>
      <trkpt lat="47.00987" lon="6.29359">
        <ele>677</ele>
        <time>2019-04-18T11:11:05Z</time>
      </trkpt>
      <trkpt lat="47.0098" lon="6.29351">
        <ele>676</ele>
        <time>2019-04-18T11:11:15Z</time>
      </trkpt>
      <trkpt lat="47.00958" lon="6.29324">
        <ele>675</ele>
        <time>2019-04-18T11:11:41Z</time>
      </trkpt>
      <trkpt lat="47.00947" lon="6.29305">
        <ele>676</ele>
        <time>2019-04-18T11:11:59Z</time>
      </trkpt>
      <trkpt lat="47.0094" lon="6.29295">
        <ele>676</ele>
        <time>2019-04-18T11:12:07Z</time>
      </trkpt>
      <trkpt lat="47.00935" lon="6.29285">
        <ele>677</ele>
        <time>2019-04-18T11:12:14Z</time>
      </trkpt>
      <trkpt lat="47.0092" lon="6.29267">
        <ele>677</ele>
        <time>2019-04-18T11:12:33Z</time>
      </trkpt>
      <trkpt lat="47.00917" lon="6.29255">
        <ele>677</ele>
        <time>2019-04-18T11:12:41Z</time>
      </trkpt>
      <trkpt lat="47.00905" lon="6.29257">
        <ele>679</ele>
        <time>2019-04-18T11:12:56Z</time>
      </trkpt>
      <trkpt lat="47.00897" lon="6.29265">
        <ele>688</ele>
        <time>2019-04-18T11:14:39Z</time>
      </trkpt>
      <trkpt lat="47.00892" lon="6.29277">
        <ele>691</ele>
        <time>2019-04-18T11:15:45Z</time>
      </trkpt>
      <trkpt lat="47.00879" lon="6.29316">
        <ele>692</ele>
        <time>2019-04-18T11:16:20Z</time>
      </trkpt>
      <trkpt lat="47.00878" lon="6.29332">
        <ele>691</ele>
        <time>2019-04-18T11:16:30Z</time>
      </trkpt>
      <trkpt lat="47.00867" lon="6.29335">
        <ele>691</ele>
        <time>2019-04-18T11:16:36Z</time>
      </trkpt>
      <trkpt lat="47.00859" lon="6.29342">
        <ele>691</ele>
        <time>2019-04-18T11:16:45Z</time>
      </trkpt>
      <trkpt lat="47.00857" lon="6.29356">
        <ele>691</ele>
        <time>2019-04-18T11:16:53Z</time>
      </trkpt>
      <trkpt lat="47.00856" lon="6.2937">
        <ele>691</ele>
        <time>2019-04-18T11:17:00Z</time>
      </trkpt>
      <trkpt lat="47.00845" lon="6.29402">
        <ele>690</ele>
        <time>2019-04-18T11:17:30Z</time>
      </trkpt>
      <trkpt lat="47.00842" lon="6.29415">
        <ele>690</ele>
        <time>2019-04-18T11:17:38Z</time>
      </trkpt>
      <trkpt lat="47.00839" lon="6.29428">
        <ele>690</ele>
        <time>2019-04-18T11:17:46Z</time>
      </trkpt>
      <trkpt lat="47.00833" lon="6.29439">
        <ele>689</ele>
        <time>2019-04-18T11:17:56Z</time>
      </trkpt>
      <trkpt lat="47.0083" lon="6.29453">
        <ele>682</ele>
        <time>2019-04-18T11:20:56Z</time>
      </trkpt>
      <trkpt lat="47.00817" lon="6.29469">
        <ele>680</ele>
        <time>2019-04-18T11:21:14Z</time>
      </trkpt>
      <trkpt lat="47.0081" lon="6.29481">
        <ele>680</ele>
        <time>2019-04-18T11:21:21Z</time>
      </trkpt>
      <trkpt lat="47.00808" lon="6.29493">
        <ele>679</ele>
        <time>2019-04-18T11:21:28Z</time>
      </trkpt>
      <trkpt lat="47.00802" lon="6.29507">
        <ele>680</ele>
        <time>2019-04-18T11:21:40Z</time>
      </trkpt>
      <trkpt lat="47.00794" lon="6.29529">
        <ele>678</ele>
        <time>2019-04-18T11:21:58Z</time>
      </trkpt>
      <trkpt lat="47.00791" lon="6.29549">
        <ele>677</ele>
        <time>2019-04-18T11:22:16Z</time>
      </trkpt>
      <trkpt lat="47.00785" lon="6.29564">
        <ele>676</ele>
        <time>2019-04-18T11:22:27Z</time>
      </trkpt>
      <trkpt lat="47.00775" lon="6.29571">
        <ele>675</ele>
        <time>2019-04-18T11:22:35Z</time>
      </trkpt>
      <trkpt lat="47.00771" lon="6.29583">
        <ele>673</ele>
        <time>2019-04-18T11:22:46Z</time>
      </trkpt>
      <trkpt lat="47.00772" lon="6.29596">
        <ele>672</ele>
        <time>2019-04-18T11:22:54Z</time>
      </trkpt>
      <trkpt lat="47.00758" lon="6.29625">
        <ele>668</ele>
        <time>2019-04-18T11:23:20Z</time>
      </trkpt>
      <trkpt lat="47.00747" lon="6.29606">
        <ele>667</ele>
        <time>2019-04-18T11:23:57Z</time>
      </trkpt>
      <trkpt lat="47.00748" lon="6.29592">
        <ele>666</ele>
        <time>2019-04-18T11:24:07Z</time>
      </trkpt>
      <trkpt lat="47.00738" lon="6.29576">
        <ele>665</ele>
        <time>2019-04-18T11:24:22Z</time>
      </trkpt>
      <trkpt lat="47.00721" lon="6.29551">
        <ele>663</ele>
        <time>2019-04-18T11:24:42Z</time>
      </trkpt>
      <trkpt lat="47.00706" lon="6.29534">
        <ele>663</ele>
        <time>2019-04-18T11:24:57Z</time>
      </trkpt>
      <trkpt lat="47.00667" lon="6.29512">
        <ele>657</ele>
        <time>2019-04-18T11:25:42Z</time>
      </trkpt>
      <trkpt lat="47.00659" lon="6.29503">
        <ele>657</ele>
        <time>2019-04-18T11:25:48Z</time>
      </trkpt>
      <trkpt lat="47.00643" lon="6.29489">
        <ele>654</ele>
        <time>2019-04-18T11:26:05Z</time>
      </trkpt>
      <trkpt lat="47.00636" lon="6.29482">
        <ele>655</ele>
        <time>2019-04-18T11:26:13Z</time>
      </trkpt>
      <trkpt lat="47.00626" lon="6.29476">
        <ele>653</ele>
        <time>2019-04-18T11:26:21Z</time>
      </trkpt>
      <trkpt lat="47.00618" lon="6.2948">
        <ele>652</ele>
        <time>2019-04-18T11:26:31Z</time>
      </trkpt>
      <trkpt lat="47.00604" lon="6.29474">
        <ele>647</ele>
        <time>2019-04-18T11:26:49Z</time>
      </trkpt>
      <trkpt lat="47.00588" lon="6.29447">
        <ele>643</ele>
        <time>2019-04-18T11:27:14Z</time>
      </trkpt>
      <trkpt lat="47.00589" lon="6.29475">
        <ele>636</ele>
        <time>2019-04-18T11:27:34Z</time>
      </trkpt>
      <trkpt lat="47.00589" lon="6.29489">
        <ele>635</ele>
        <time>2019-04-18T11:27:42Z</time>
      </trkpt>
      <trkpt lat="47.00591" lon="6.29502">
        <ele>634</ele>
        <time>2019-04-18T11:27:49Z</time>
      </trkpt>
      <trkpt lat="47.00602" lon="6.29528">
        <ele>632</ele>
        <time>2019-04-18T11:28:03Z</time>
      </trkpt>
      <trkpt lat="47.00608" lon="6.29539">
        <ele>632</ele>
        <time>2019-04-18T11:28:10Z</time>
      </trkpt>
      <trkpt lat="47.00609" lon="6.29553">
        <ele>631</ele>
        <time>2019-04-18T11:28:19Z</time>
      </trkpt>
      <trkpt lat="47.00611" lon="6.29565">
        <ele>630</ele>
        <time>2019-04-18T11:28:31Z</time>
      </trkpt>
      <trkpt lat="47.0061" lon="6.29574">
        <ele>630</ele>
        <time>2019-04-18T11:28:49Z</time>
      </trkpt>
      <trkpt lat="47.00604" lon="6.29578">
        <ele>627</ele>
        <time>2019-04-18T11:29:01Z</time>
      </trkpt>
      <trkpt lat="47.00601" lon="6.29585">
        <ele>626</ele>
        <time>2019-04-18T11:29:12Z</time>
      </trkpt>
      <trkpt lat="47.00596" lon="6.29594">
        <ele>625</ele>
        <time>2019-04-18T11:29:25Z</time>
      </trkpt>
      <trkpt lat="47.00595" lon="6.29602">
        <ele>623</ele>
        <time>2019-04-18T11:29:39Z</time>
      </trkpt>
      <trkpt lat="47.00587" lon="6.29615">
        <ele>620</ele>
        <time>2019-04-18T11:30:03Z</time>
      </trkpt>
      <trkpt lat="47.00593" lon="6.29653">
        <ele>614</ele>
        <time>2019-04-18T11:30:38Z</time>
      </trkpt>
      <trkpt lat="47.00596" lon="6.29659">
        <ele>614</ele>
        <time>2019-04-18T11:30:43Z</time>
      </trkpt>
      <trkpt lat="47.00601" lon="6.29666">
        <ele>615</ele>
        <time>2019-04-18T11:30:49Z</time>
      </trkpt>
      <trkpt lat="47.00604" lon="6.29673">
        <ele>615</ele>
        <time>2019-04-18T11:30:53Z</time>
      </trkpt>
      <trkpt lat="47.00607" lon="6.2968">
        <ele>614</ele>
        <time>2019-04-18T11:30:58Z</time>
      </trkpt>
      <trkpt lat="47.00611" lon="6.29684">
        <ele>614</ele>
        <time>2019-04-18T11:31:02Z</time>
      </trkpt>
      <trkpt lat="47.00613" lon="6.29692">
        <ele>613</ele>
        <time>2019-04-18T11:31:07Z</time>
      </trkpt>
      <trkpt lat="47.00616" lon="6.29702">
        <ele>612</ele>
        <time>2019-04-18T11:31:14Z</time>
      </trkpt>
      <trkpt lat="47.00617" lon="6.29716">
        <ele>611</ele>
        <time>2019-04-18T11:31:22Z</time>
      </trkpt>
      <trkpt lat="47.00637" lon="6.2977">
        <ele>608</ele>
        <time>2019-04-18T11:31:58Z</time>
      </trkpt>
      <trkpt lat="47.00642" lon="6.29782">
        <ele>608</ele>
        <time>2019-04-18T11:32:07Z</time>
      </trkpt>
      <trkpt lat="47.00648" lon="6.29793">
        <ele>607</ele>
        <time>2019-04-18T11:32:16Z</time>
      </trkpt>
      <trkpt lat="47.00647" lon="6.29815">
        <ele>603</ele>
        <time>2019-04-18T11:32:46Z</time>
      </trkpt>
      <trkpt lat="47.00654" lon="6.29825">
        <ele>603</ele>
        <time>2019-04-18T11:32:56Z</time>
      </trkpt>
      <trkpt lat="47.00661" lon="6.29835">
        <ele>604</ele>
        <time>2019-04-18T11:33:05Z</time>
      </trkpt>
      <trkpt lat="47.00667" lon="6.29848">
        <ele>604</ele>
        <time>2019-04-18T11:33:16Z</time>
      </trkpt>
      <trkpt lat="47.00671" lon="6.2986">
        <ele>604</ele>
        <time>2019-04-18T11:33:23Z</time>
      </trkpt>
      <trkpt lat="47.00662" lon="6.29864">
        <ele>601</ele>
        <time>2019-04-18T11:34:00Z</time>
      </trkpt>
      <trkpt lat="47.00663" lon="6.29881">
        <ele>597</ele>
        <time>2019-04-18T11:34:25Z</time>
      </trkpt>
      <trkpt lat="47.00652" lon="6.29882">
        <ele>597</ele>
        <time>2019-04-18T11:34:39Z</time>
      </trkpt>
      <trkpt lat="47.00647" lon="6.29895">
        <ele>594</ele>
        <time>2019-04-18T11:34:49Z</time>
      </trkpt>
      <trkpt lat="47.00655" lon="6.29909">
        <ele>591</ele>
        <time>2019-04-18T11:35:02Z</time>
      </trkpt>
      <trkpt lat="47.00663" lon="6.29917">
        <ele>590</ele>
        <time>2019-04-18T11:35:07Z</time>
      </trkpt>
      <trkpt lat="47.00685" lon="6.2994">
        <ele>590</ele>
        <time>2019-04-18T11:35:27Z</time>
      </trkpt>
      <trkpt lat="47.00708" lon="6.29985">
        <ele>592</ele>
        <time>2019-04-18T11:35:54Z</time>
      </trkpt>
      <trkpt lat="47.00714" lon="6.29996">
        <ele>594</ele>
        <time>2019-04-18T11:36:01Z</time>
      </trkpt>
      <trkpt lat="47.00723" lon="6.30001">
        <ele>595</ele>
        <time>2019-04-18T11:36:09Z</time>
      </trkpt>
      <trkpt lat="47.00732" lon="6.30001">
        <ele>595</ele>
        <time>2019-04-18T11:36:18Z</time>
      </trkpt>
      <trkpt lat="47.00736" lon="6.29989">
        <ele>592</ele>
        <time>2019-04-18T11:36:41Z</time>
      </trkpt>
      <trkpt lat="47.00747" lon="6.30008">
        <ele>586</ele>
        <time>2019-04-18T11:37:16Z</time>
      </trkpt>
      <trkpt lat="47.00756" lon="6.30014">
        <ele>585</ele>
        <time>2019-04-18T11:37:22Z</time>
      </trkpt>
      <trkpt lat="47.00765" lon="6.30017">
        <ele>588</ele>
        <time>2019-04-18T11:37:30Z</time>
      </trkpt>
      <trkpt lat="47.00773" lon="6.3002">
        <ele>588</ele>
        <time>2019-04-18T11:37:40Z</time>
      </trkpt>
      <trkpt lat="47.00784" lon="6.30018">
        <ele>586</ele>
        <time>2019-04-18T11:37:52Z</time>
      </trkpt>
      <trkpt lat="47.00802" lon="6.30024">
        <ele>583</ele>
        <time>2019-04-18T11:38:08Z</time>
      </trkpt>
      <trkpt lat="47.00811" lon="6.30024">
        <ele>582</ele>
        <time>2019-04-18T11:38:15Z</time>
      </trkpt>
      <trkpt lat="47.0082" lon="6.30026">
        <ele>583</ele>
        <time>2019-04-18T11:38:22Z</time>
      </trkpt>
      <trkpt lat="47.00848" lon="6.30034">
        <ele>583</ele>
        <time>2019-04-18T11:38:44Z</time>
      </trkpt>
      <trkpt lat="47.00863" lon="6.30029">
        <ele>583</ele>
        <time>2019-04-18T11:38:59Z</time>
      </trkpt>
      <trkpt lat="47.00881" lon="6.30019">
        <ele>581</ele>
        <time>2019-04-18T11:39:11Z</time>
      </trkpt>
      <trkpt lat="47.00888" lon="6.3001">
        <ele>581</ele>
        <time>2019-04-18T11:39:18Z</time>
      </trkpt>
      <trkpt lat="47.00895" lon="6.29999">
        <ele>580</ele>
        <time>2019-04-18T11:39:27Z</time>
      </trkpt>
      <trkpt lat="47.00912" lon="6.29986">
        <ele>578</ele>
        <time>2019-04-18T11:39:41Z</time>
      </trkpt>
      <trkpt lat="47.00934" lon="6.2994">
        <ele>577</ele>
        <time>2019-04-18T11:40:13Z</time>
      </trkpt>
      <trkpt lat="47.00957" lon="6.29916">
        <ele>574</ele>
        <time>2019-04-18T11:40:37Z</time>
      </trkpt>
      <trkpt lat="47.0098" lon="6.29855">
        <ele>571</ele>
        <time>2019-04-18T11:41:14Z</time>
      </trkpt>
      <trkpt lat="47.00983" lon="6.29843">
        <ele>571</ele>
        <time>2019-04-18T11:41:22Z</time>
      </trkpt>
      <trkpt lat="47.00988" lon="6.2983">
        <ele>570</ele>
        <time>2019-04-18T11:41:31Z</time>
      </trkpt>
      <trkpt lat="47.00989" lon="6.29815">
        <ele>569</ele>
        <time>2019-04-18T11:41:40Z</time>
      </trkpt>
      <trkpt lat="47.00993" lon="6.29787">
        <ele>569</ele>
        <time>2019-04-18T11:41:56Z</time>
      </trkpt>
      <trkpt lat="47.01001" lon="6.2976">
        <ele>566</ele>
        <time>2019-04-18T11:42:12Z</time>
      </trkpt>
      <trkpt lat="47.01006" lon="6.2975">
        <ele>566</ele>
        <time>2019-04-18T11:42:22Z</time>
      </trkpt>
      <trkpt lat="47.01019" lon="6.29746">
        <ele>566</ele>
        <time>2019-04-18T11:42:39Z</time>
      </trkpt>
      <trkpt lat="47.01043" lon="6.29769">
        <ele>565</ele>
        <time>2019-04-18T11:43:02Z</time>
      </trkpt>
      <trkpt lat="47.01055" lon="6.29772">
        <ele>565</ele>
        <time>2019-04-18T11:43:10Z</time>
      </trkpt>
      <trkpt lat="47.01065" lon="6.29769">
        <ele>565</ele>
        <time>2019-04-18T11:43:13Z</time>
      </trkpt>
      <trkpt lat="47.0108" lon="6.29765">
        <ele>565</ele>
        <time>2019-04-18T11:43:20Z</time>
      </trkpt>
      <trkpt lat="47.01119" lon="6.29794">
        <ele>555</ele>
        <time>2019-04-18T11:44:29Z</time>
      </trkpt>
      <trkpt lat="47.01139" lon="6.29791">
        <ele>554</ele>
        <time>2019-04-18T11:44:52Z</time>
      </trkpt>
      <trkpt lat="47.01142" lon="6.29838">
        <ele>540</ele>
        <time>2019-04-18T11:45:25Z</time>
      </trkpt>
      <trkpt lat="47.01138" lon="6.2985">
        <ele>538</ele>
        <time>2019-04-18T11:45:35Z</time>
      </trkpt>
      <trkpt lat="47.01128" lon="6.29863">
        <ele>540</ele>
        <time>2019-04-18T11:45:46Z</time>
      </trkpt>
      <trkpt lat="47.01136" lon="6.29871">
        <ele>539</ele>
        <time>2019-04-18T11:45:56Z</time>
      </trkpt>
      <trkpt lat="47.01128" lon="6.29894">
        <ele>541</ele>
        <time>2019-04-18T11:47:02Z</time>
      </trkpt>
      <trkpt lat="47.01124" lon="6.29909">
        <ele>541</ele>
        <time>2019-04-18T11:47:17Z</time>
      </trkpt>
      <trkpt lat="47.01139" lon="6.29903">
        <ele>530</ele>
        <time>2019-04-18T11:48:03Z</time>
      </trkpt>
      <trkpt lat="47.01132" lon="6.29905">
        <ele>538</ele>
        <time>2019-04-18T11:55:56Z</time>
      </trkpt>
      <trkpt lat="47.01124" lon="6.29896">
        <ele>537</ele>
        <time>2019-04-18T11:57:21Z</time>
      </trkpt>
      <trkpt lat="47.01141" lon="6.29895">
        <ele>533</ele>
        <time>2019-04-18T11:58:57Z</time>
      </trkpt>
      <trkpt lat="47.01165" lon="6.29876">
        <ele>529</ele>
        <time>2019-04-18T11:59:31Z</time>
      </trkpt>
      <trkpt lat="47.01171" lon="6.29858">
        <ele>531</ele>
        <time>2019-04-18T11:59:45Z</time>
      </trkpt>
      <trkpt lat="47.0117" lon="6.29845">
        <ele>529</ele>
        <time>2019-04-18T12:00:08Z</time>
      </trkpt>
      <trkpt lat="47.0118" lon="6.29832">
        <ele>522</ele>
        <time>2019-04-18T12:01:20Z</time>
      </trkpt>
      <trkpt lat="47.01191" lon="6.29825">
        <ele>523</ele>
        <time>2019-04-18T12:01:28Z</time>
      </trkpt>
      <trkpt lat="47.01202" lon="6.29819">
        <ele>528</ele>
        <time>2019-04-18T12:01:44Z</time>
      </trkpt>
      <trkpt lat="47.01214" lon="6.29834">
        <ele>527</ele>
        <time>2019-04-18T12:02:03Z</time>
      </trkpt>
      <trkpt lat="47.01216" lon="6.29817">
        <ele>525</ele>
        <time>2019-04-18T12:02:10Z</time>
      </trkpt>
      <trkpt lat="47.01224" lon="6.29812">
        <ele>531</ele>
        <time>2019-04-18T12:02:20Z</time>
      </trkpt>
      <trkpt lat="47.01238" lon="6.2982">
        <ele>532</ele>
        <time>2019-04-18T12:02:36Z</time>
      </trkpt>
      <trkpt lat="47.01247" lon="6.29825">
        <ele>532</ele>
        <time>2019-04-18T12:02:42Z</time>
      </trkpt>
      <trkpt lat="47.01259" lon="6.29827">
        <ele>532</ele>
        <time>2019-04-18T12:02:54Z</time>
      </trkpt>
      <trkpt lat="47.01271" lon="6.29841">
        <ele>529</ele>
        <time>2019-04-18T12:03:13Z</time>
      </trkpt>
      <trkpt lat="47.01282" lon="6.2985">
        <ele>528</ele>
        <time>2019-04-18T12:03:23Z</time>
      </trkpt>
      <trkpt lat="47.01291" lon="6.29855">
        <ele>528</ele>
        <time>2019-04-18T12:03:32Z</time>
      </trkpt>
      <trkpt lat="47.01301" lon="6.29855">
        <ele>528</ele>
        <time>2019-04-18T12:03:42Z</time>
      </trkpt>
      <trkpt lat="47.01311" lon="6.29851">
        <ele>528</ele>
        <time>2019-04-18T12:03:48Z</time>
      </trkpt>
      <trkpt lat="47.01328" lon="6.29845">
        <ele>529</ele>
        <time>2019-04-18T12:04:05Z</time>
      </trkpt>
      <trkpt lat="47.01338" lon="6.29862">
        <ele>528</ele>
        <time>2019-04-18T12:04:26Z</time>
      </trkpt>
      <trkpt lat="47.01346" lon="6.29851">
        <ele>528</ele>
        <time>2019-04-18T12:04:41Z</time>
      </trkpt>
      <trkpt lat="47.01355" lon="6.29867">
        <ele>527</ele>
        <time>2019-04-18T12:04:51Z</time>
      </trkpt>
      <trkpt lat="47.01355" lon="6.29826">
        <ele>521</ele>
        <time>2019-04-18T12:05:13Z</time>
      </trkpt>
      <trkpt lat="47.01369" lon="6.29821">
        <ele>523</ele>
        <time>2019-04-18T12:06:28Z</time>
      </trkpt>
      <trkpt lat="47.01373" lon="6.29801">
        <ele>523</ele>
        <time>2019-04-18T12:07:14Z</time>
      </trkpt>
      <trkpt lat="47.01392" lon="6.29761">
        <ele>529</ele>
        <time>2019-04-18T12:07:44Z</time>
      </trkpt>
      <trkpt lat="47.01396" lon="6.2975">
        <ele>531</ele>
        <time>2019-04-18T12:07:53Z</time>
      </trkpt>
      <trkpt lat="47.01405" lon="6.29742">
        <ele>532</ele>
        <time>2019-04-18T12:07:59Z</time>
      </trkpt>
      <trkpt lat="47.0141" lon="6.29732">
        <ele>533</ele>
        <time>2019-04-18T12:08:07Z</time>
      </trkpt>
      <trkpt lat="47.01413" lon="6.2972">
        <ele>535</ele>
        <time>2019-04-18T12:08:17Z</time>
      </trkpt>
      <trkpt lat="47.01417" lon="6.29706">
        <ele>535</ele>
        <time>2019-04-18T12:08:26Z</time>
      </trkpt>
      <trkpt lat="47.01429" lon="6.29684">
        <ele>536</ele>
        <time>2019-04-18T12:08:42Z</time>
      </trkpt>
      <trkpt lat="47.01433" lon="6.2967">
        <ele>537</ele>
        <time>2019-04-18T12:08:51Z</time>
      </trkpt>
      <trkpt lat="47.01434" lon="6.29657">
        <ele>536</ele>
        <time>2019-04-18T12:08:59Z</time>
      </trkpt>
      <trkpt lat="47.01441" lon="6.29647">
        <ele>537</ele>
        <time>2019-04-18T12:09:07Z</time>
      </trkpt>
      <trkpt lat="47.01444" lon="6.29635">
        <ele>536</ele>
        <time>2019-04-18T12:09:17Z</time>
      </trkpt>
      <trkpt lat="47.0145" lon="6.29623">
        <ele>538</ele>
        <time>2019-04-18T12:09:23Z</time>
      </trkpt>
      <trkpt lat="47.01457" lon="6.29616">
        <ele>539</ele>
        <time>2019-04-18T12:09:29Z</time>
      </trkpt>
      <trkpt lat="47.01466" lon="6.29608">
        <ele>538</ele>
        <time>2019-04-18T12:09:38Z</time>
      </trkpt>
      <trkpt lat="47.01467" lon="6.29594">
        <ele>538</ele>
        <time>2019-04-18T12:09:48Z</time>
      </trkpt>
      <trkpt lat="47.01474" lon="6.29581">
        <ele>538</ele>
        <time>2019-04-18T12:09:58Z</time>
      </trkpt>
      <trkpt lat="47.01477" lon="6.29568">
        <ele>538</ele>
        <time>2019-04-18T12:10:07Z</time>
      </trkpt>
      <trkpt lat="47.01484" lon="6.29558">
        <ele>538</ele>
        <time>2019-04-18T12:10:15Z</time>
      </trkpt>
      <trkpt lat="47.01491" lon="6.29547">
        <ele>537</ele>
        <time>2019-04-18T12:10:25Z</time>
      </trkpt>
      <trkpt lat="47.01505" lon="6.29527">
        <ele>534</ele>
        <time>2019-04-18T12:10:40Z</time>
      </trkpt>
      <trkpt lat="47.01505" lon="6.29514">
        <ele>536</ele>
        <time>2019-04-18T12:10:49Z</time>
      </trkpt>
      <trkpt lat="47.01503" lon="6.29502">
        <ele>536</ele>
        <time>2019-04-18T12:10:56Z</time>
      </trkpt>
      <trkpt lat="47.01503" lon="6.29489">
        <ele>538</ele>
        <time>2019-04-18T12:11:04Z</time>
      </trkpt>
      <trkpt lat="47.01511" lon="6.2947">
        <ele>540</ele>
        <time>2019-04-18T12:11:12Z</time>
      </trkpt>
      <trkpt lat="47.01527" lon="6.2946">
        <ele>526</ele>
        <time>2019-04-18T12:12:47Z</time>
      </trkpt>
      <trkpt lat="47.01527" lon="6.29461">
        <ele>524</ele>
        <time>2019-04-18T12:13:34Z</time>
      </trkpt>
      <trkpt lat="47.0154" lon="6.29452">
        <ele>521</ele>
        <time>2019-04-18T12:13:49Z</time>
      </trkpt>
      <trkpt lat="47.01548" lon="6.29446">
        <ele>521</ele>
        <time>2019-04-18T12:13:57Z</time>
      </trkpt>
      <trkpt lat="47.01574" lon="6.29426">
        <ele>520</ele>
        <time>2019-04-18T12:14:15Z</time>
      </trkpt>
      <trkpt lat="47.01579" lon="6.29416">
        <ele>520</ele>
        <time>2019-04-18T12:14:22Z</time>
      </trkpt>
      <trkpt lat="47.01585" lon="6.29404">
        <ele>522</ele>
        <time>2019-04-18T12:14:32Z</time>
      </trkpt>
      <trkpt lat="47.01592" lon="6.29391">
        <ele>520</ele>
        <time>2019-04-18T12:15:11Z</time>
      </trkpt>
      <trkpt lat="47.01601" lon="6.29384">
        <ele>518</ele>
        <time>2019-04-18T12:15:27Z</time>
      </trkpt>
      <trkpt lat="47.01603" lon="6.29371">
        <ele>513</ele>
        <time>2019-04-18T12:15:55Z</time>
      </trkpt>
      <trkpt lat="47.01611" lon="6.29362">
        <ele>512</ele>
        <time>2019-04-18T12:16:02Z</time>
      </trkpt>
      <trkpt lat="47.01633" lon="6.29345">
        <ele>511</ele>
        <time>2019-04-18T12:16:12Z</time>
      </trkpt>
      <trkpt lat="47.01638" lon="6.29335">
        <ele>510</ele>
        <time>2019-04-18T12:16:18Z</time>
      </trkpt>
      <trkpt lat="47.01627" lon="6.29325">
        <ele>511</ele>
        <time>2019-04-18T12:16:31Z</time>
      </trkpt>
      <trkpt lat="47.01637" lon="6.29317">
        <ele>510</ele>
        <time>2019-04-18T12:16:42Z</time>
      </trkpt>
      <trkpt lat="47.01645" lon="6.2931">
        <ele>510</ele>
        <time>2019-04-18T12:16:47Z</time>
      </trkpt>
      <trkpt lat="47.01653" lon="6.29302">
        <ele>509</ele>
        <time>2019-04-18T12:16:55Z</time>
      </trkpt>
      <trkpt lat="47.01661" lon="6.29293">
        <ele>509</ele>
        <time>2019-04-18T12:17:11Z</time>
      </trkpt>
      <trkpt lat="47.01691" lon="6.29278">
        <ele>509</ele>
        <time>2019-04-18T12:17:44Z</time>
      </trkpt>
      <trkpt lat="47.01713" lon="6.29288">
        <ele>508</ele>
        <time>2019-04-18T12:18:13Z</time>
      </trkpt>
      <trkpt lat="47.01722" lon="6.29296">
        <ele>506</ele>
        <time>2019-04-18T12:18:21Z</time>
      </trkpt>
      <trkpt lat="47.01728" lon="6.29304">
        <ele>505</ele>
        <time>2019-04-18T12:18:29Z</time>
      </trkpt>
      <trkpt lat="47.01754" lon="6.29308">
        <ele>503</ele>
        <time>2019-04-18T12:18:58Z</time>
      </trkpt>
      <trkpt lat="47.01763" lon="6.29303">
        <ele>503</ele>
        <time>2019-04-18T12:19:12Z</time>
      </trkpt>
      <trkpt lat="47.01776" lon="6.29304">
        <ele>502</ele>
        <time>2019-04-18T12:19:27Z</time>
      </trkpt>
      <trkpt lat="47.01779" lon="6.29324">
        <ele>501</ele>
        <time>2019-04-18T12:19:50Z</time>
      </trkpt>
      <trkpt lat="47.01797" lon="6.2931">
        <ele>501</ele>
        <time>2019-04-18T12:20:52Z</time>
      </trkpt>
      <trkpt lat="47.0179" lon="6.29325">
        <ele>497</ele>
        <time>2019-04-18T12:21:46Z</time>
      </trkpt>
      <trkpt lat="47.01797" lon="6.29338">
        <ele>494</ele>
        <time>2019-04-18T12:22:08Z</time>
      </trkpt>
      <trkpt lat="47.01807" lon="6.29349">
        <ele>495</ele>
        <time>2019-04-18T12:22:27Z</time>
      </trkpt>
      <trkpt lat="47.01822" lon="6.29363">
        <ele>494</ele>
        <time>2019-04-18T12:22:45Z</time>
      </trkpt>
      <trkpt lat="47.0183" lon="6.29369">
        <ele>493</ele>
        <time>2019-04-18T12:22:54Z</time>
      </trkpt>
      <trkpt lat="47.01847" lon="6.29384">
        <ele>493</ele>
        <time>2019-04-18T12:23:12Z</time>
      </trkpt>
      <trkpt lat="47.01855" lon="6.29393">
        <ele>494</ele>
        <time>2019-04-18T12:23:20Z</time>
      </trkpt>
      <trkpt lat="47.01861" lon="6.29403">
        <ele>494</ele>
        <time>2019-04-18T12:23:40Z</time>
      </trkpt>
      <trkpt lat="47.01875" lon="6.29436">
        <ele>494</ele>
        <time>2019-04-18T12:24:09Z</time>
      </trkpt>
      <trkpt lat="47.01882" lon="6.29444">
        <ele>495</ele>
        <time>2019-04-18T12:24:19Z</time>
      </trkpt>
      <trkpt lat="47.01884" lon="6.29457">
        <ele>497</ele>
        <time>2019-04-18T12:24:29Z</time>
      </trkpt>
      <trkpt lat="47.0188" lon="6.2949">
        <ele>495</ele>
        <time>2019-04-18T12:24:59Z</time>
      </trkpt>
      <trkpt lat="47.01875" lon="6.29506">
        <ele>494</ele>
        <time>2019-04-18T12:25:10Z</time>
      </trkpt>
      <trkpt lat="47.01871" lon="6.29505">
        <ele>493</ele>
        <time>2019-04-18T12:26:05Z</time>
      </trkpt>
      <trkpt lat="47.01872" lon="6.29525">
        <ele>492</ele>
        <time>2019-04-18T12:26:19Z</time>
      </trkpt>
      <trkpt lat="47.01886" lon="6.29556">
        <ele>487</ele>
        <time>2019-04-18T12:26:51Z</time>
      </trkpt>
      <trkpt lat="47.0189" lon="6.29568">
        <ele>485</ele>
        <time>2019-04-18T12:27:00Z</time>
      </trkpt>
      <trkpt lat="47.019" lon="6.29599">
        <ele>480</ele>
        <time>2019-04-18T12:27:26Z</time>
      </trkpt>
      <trkpt lat="47.01915" lon="6.29617">
        <ele>477</ele>
        <time>2019-04-18T12:27:44Z</time>
      </trkpt>
      <trkpt lat="47.01923" lon="6.2962">
        <ele>477</ele>
        <time>2019-04-18T12:27:53Z</time>
      </trkpt>
      <trkpt lat="47.01939" lon="6.29626">
        <ele>476</ele>
        <time>2019-04-18T12:28:16Z</time>
      </trkpt>
      <trkpt lat="47.01945" lon="6.29637">
        <ele>477</ele>
        <time>2019-04-18T12:28:24Z</time>
      </trkpt>
      <trkpt lat="47.01965" lon="6.29644">
        <ele>476</ele>
        <time>2019-04-18T12:28:45Z</time>
      </trkpt>
      <trkpt lat="47.01976" lon="6.29644">
        <ele>476</ele>
        <time>2019-04-18T12:28:51Z</time>
      </trkpt>
      <trkpt lat="47.01997" lon="6.29644">
        <ele>474</ele>
        <time>2019-04-18T12:29:11Z</time>
      </trkpt>
      <trkpt lat="47.02007" lon="6.29646">
        <ele>474</ele>
        <time>2019-04-18T12:29:21Z</time>
      </trkpt>
      <trkpt lat="47.02016" lon="6.29649">
        <ele>475</ele>
        <time>2019-04-18T12:29:34Z</time>
      </trkpt>
      <trkpt lat="47.02032" lon="6.29659">
        <ele>474</ele>
        <time>2019-04-18T12:29:57Z</time>
      </trkpt>
      <trkpt lat="47.02057" lon="6.29673">
        <ele>471</ele>
        <time>2019-04-18T12:30:25Z</time>
      </trkpt>
      <trkpt lat="47.0207" lon="6.29677">
        <ele>471</ele>
        <time>2019-04-18T12:30:37Z</time>
      </trkpt>
      <trkpt lat="47.02078" lon="6.29675">
        <ele>471</ele>
        <time>2019-04-18T12:30:44Z</time>
      </trkpt>
      <trkpt lat="47.02089" lon="6.29683">
        <ele>470</ele>
        <time>2019-04-18T12:31:03Z</time>
      </trkpt>
      <trkpt lat="47.02098" lon="6.29694">
        <ele>469</ele>
        <time>2019-04-18T12:31:24Z</time>
      </trkpt>
      <trkpt lat="47.02109" lon="6.29694">
        <ele>469</ele>
        <time>2019-04-18T12:31:32Z</time>
      </trkpt>
      <trkpt lat="47.02114" lon="6.29705">
        <ele>469</ele>
        <time>2019-04-18T12:31:39Z</time>
      </trkpt>
      <trkpt lat="47.02125" lon="6.29707">
        <ele>469</ele>
        <time>2019-04-18T12:31:46Z</time>
      </trkpt>
      <trkpt lat="47.02145" lon="6.29706">
        <ele>469</ele>
        <time>2019-04-18T12:31:56Z</time>
      </trkpt>
      <trkpt lat="47.02159" lon="6.29709">
        <ele>468</ele>
        <time>2019-04-18T12:32:13Z</time>
      </trkpt>
      <trkpt lat="47.02167" lon="6.29715">
        <ele>466</ele>
        <time>2019-04-18T12:32:27Z</time>
      </trkpt>
      <trkpt lat="47.02176" lon="6.2971">
        <ele>467</ele>
        <time>2019-04-18T12:32:45Z</time>
      </trkpt>
      <trkpt lat="47.02187" lon="6.29704">
        <ele>468</ele>
        <time>2019-04-18T12:32:54Z</time>
      </trkpt>
      <trkpt lat="47.02196" lon="6.29702">
        <ele>468</ele>
        <time>2019-04-18T12:33:00Z</time>
      </trkpt>
      <trkpt lat="47.02212" lon="6.29689">
        <ele>467</ele>
        <time>2019-04-18T12:33:19Z</time>
      </trkpt>
      <trkpt lat="47.02222" lon="6.29682">
        <ele>467</ele>
        <time>2019-04-18T12:33:59Z</time>
      </trkpt>
      <trkpt lat="47.02233" lon="6.29674">
        <ele>470</ele>
        <time>2019-04-18T12:34:13Z</time>
      </trkpt>
      <trkpt lat="47.02243" lon="6.29672">
        <ele>470</ele>
        <time>2019-04-18T12:34:22Z</time>
      </trkpt>
      <trkpt lat="47.02252" lon="6.29669">
        <ele>469</ele>
        <time>2019-04-18T12:34:30Z</time>
      </trkpt>
      <trkpt lat="47.02258" lon="6.29656">
        <ele>470</ele>
        <time>2019-04-18T12:34:50Z</time>
      </trkpt>
      <trkpt lat="47.02266" lon="6.29646">
        <ele>468</ele>
        <time>2019-04-18T12:35:14Z</time>
      </trkpt>
      <trkpt lat="47.02273" lon="6.29635">
        <ele>468</ele>
        <time>2019-04-18T12:35:53Z</time>
      </trkpt>
      <trkpt lat="47.02288" lon="6.2963">
        <ele>467</ele>
        <time>2019-04-18T12:36:04Z</time>
      </trkpt>
      <trkpt lat="47.02307" lon="6.29626">
        <ele>467</ele>
        <time>2019-04-18T12:36:19Z</time>
      </trkpt>
      <trkpt lat="47.02315" lon="6.2962">
        <ele>468</ele>
        <time>2019-04-18T12:36:25Z</time>
      </trkpt>
      <trkpt lat="47.02308" lon="6.29607">
        <ele>466</ele>
        <time>2019-04-18T12:36:34Z</time>
      </trkpt>
      <trkpt lat="47.02307" lon="6.29593">
        <ele>466</ele>
        <time>2019-04-18T12:36:40Z</time>
      </trkpt>
      <trkpt lat="47.02314" lon="6.29583">
        <ele>466</ele>
        <time>2019-04-18T12:36:49Z</time>
      </trkpt>
      <trkpt lat="47.02323" lon="6.2958">
        <ele>466</ele>
        <time>2019-04-18T12:36:58Z</time>
      </trkpt>
      <trkpt lat="47.02338" lon="6.29579">
        <ele>464</ele>
        <time>2019-04-18T12:38:05Z</time>
      </trkpt>
      <trkpt lat="47.02346" lon="6.29566">
        <ele>462</ele>
        <time>2019-04-18T12:38:21Z</time>
      </trkpt>
      <trkpt lat="47.02333" lon="6.29552">
        <ele>463</ele>
        <time>2019-04-18T12:38:42Z</time>
      </trkpt>
      <trkpt lat="47.02325" lon="6.29544">
        <ele>464</ele>
        <time>2019-04-18T12:38:49Z</time>
      </trkpt>
      <trkpt lat="47.02334" lon="6.29532">
        <ele>465</ele>
        <time>2019-04-18T12:38:57Z</time>
      </trkpt>
      <trkpt lat="47.02341" lon="6.29528">
        <ele>464</ele>
        <time>2019-04-18T12:39:03Z</time>
      </trkpt>
      <trkpt lat="47.02347" lon="6.29511">
        <ele>464</ele>
        <time>2019-04-18T12:39:20Z</time>
      </trkpt>
      <trkpt lat="47.02352" lon="6.29498">
        <ele>462</ele>
        <time>2019-04-18T12:39:35Z</time>
      </trkpt>
      <trkpt lat="47.0236" lon="6.2949">
        <ele>460</ele>
        <time>2019-04-18T12:39:42Z</time>
      </trkpt>
      <trkpt lat="47.02363" lon="6.29468">
        <ele>458</ele>
        <time>2019-04-18T12:39:59Z</time>
      </trkpt>
      <trkpt lat="47.02371" lon="6.29464">
        <ele>457</ele>
        <time>2019-04-18T12:40:05Z</time>
      </trkpt>
      <trkpt lat="47.02379" lon="6.29455">
        <ele>457</ele>
        <time>2019-04-18T12:40:11Z</time>
      </trkpt>
      <trkpt lat="47.02381" lon="6.29443">
        <ele>457</ele>
        <time>2019-04-18T12:40:19Z</time>
      </trkpt>
      <trkpt lat="47.02375" lon="6.29427">
        <ele>454</ele>
        <time>2019-04-18T12:40:36Z</time>
      </trkpt>
      <trkpt lat="47.02374" lon="6.29413">
        <ele>454</ele>
        <time>2019-04-18T12:40:43Z</time>
      </trkpt>
      <trkpt lat="47.0237" lon="6.29401">
        <ele>454</ele>
        <time>2019-04-18T12:40:51Z</time>
      </trkpt>
      <trkpt lat="47.02366" lon="6.29389">
        <ele>453</ele>
        <time>2019-04-18T12:40:58Z</time>
      </trkpt>
      <trkpt lat="47.02359" lon="6.29378">
        <ele>454</ele>
        <time>2019-04-18T12:41:08Z</time>
      </trkpt>
      <trkpt lat="47.0235" lon="6.29355">
        <ele>456</ele>
        <time>2019-04-18T12:41:22Z</time>
      </trkpt>
      <trkpt lat="47.02346" lon="6.29341">
        <ele>457</ele>
        <time>2019-04-18T12:41:34Z</time>
      </trkpt>
      <trkpt lat="47.02345" lon="6.29321">
        <ele>457</ele>
        <time>2019-04-18T12:41:54Z</time>
      </trkpt>
      <trkpt lat="47.02347" lon="6.29307">
        <ele>456</ele>
        <time>2019-04-18T12:42:02Z</time>
      </trkpt>
      <trkpt lat="47.02342" lon="6.29295">
        <ele>457</ele>
        <time>2019-04-18T12:42:11Z</time>
      </trkpt>
      <trkpt lat="47.02333" lon="6.29287">
        <ele>457</ele>
        <time>2019-04-18T12:42:38Z</time>
      </trkpt>
      <trkpt lat="47.02325" lon="6.29279">
        <ele>457</ele>
        <time>2019-04-18T12:42:46Z</time>
      </trkpt>
      <trkpt lat="47.02319" lon="6.29267">
        <ele>458</ele>
        <time>2019-04-18T12:42:56Z</time>
      </trkpt>
      <trkpt lat="47.02315" lon="6.29245">
        <ele>458</ele>
        <time>2019-04-18T12:43:14Z</time>
      </trkpt>
      <trkpt lat="47.02311" lon="6.29232">
        <ele>458</ele>
        <time>2019-04-18T12:43:24Z</time>
      </trkpt>
      <trkpt lat="47.02315" lon="6.29216">
        <ele>458</ele>
        <time>2019-04-18T12:43:48Z</time>
      </trkpt>
      <trkpt lat="47.02317" lon="6.29188">
        <ele>455</ele>
        <time>2019-04-18T12:44:16Z</time>
      </trkpt>
      <trkpt lat="47.02312" lon="6.29176">
        <ele>454</ele>
        <time>2019-04-18T12:44:24Z</time>
      </trkpt>
      <trkpt lat="47.02303" lon="6.29161">
        <ele>452</ele>
        <time>2019-04-18T12:44:33Z</time>
      </trkpt>
      <trkpt lat="47.02296" lon="6.2915">
        <ele>453</ele>
        <time>2019-04-18T12:44:50Z</time>
      </trkpt>
      <trkpt lat="47.02287" lon="6.29142">
        <ele>454</ele>
        <time>2019-04-18T12:45:00Z</time>
      </trkpt>
      <trkpt lat="47.0228" lon="6.29132">
        <ele>455</ele>
        <time>2019-04-18T12:45:11Z</time>
      </trkpt>
      <trkpt lat="47.02272" lon="6.29123">
        <ele>456</ele>
        <time>2019-04-18T12:45:23Z</time>
      </trkpt>
      <trkpt lat="47.0227" lon="6.2911">
        <ele>456</ele>
        <time>2019-04-18T12:45:35Z</time>
      </trkpt>
      <trkpt lat="47.02255" lon="6.2908">
        <ele>458</ele>
        <time>2019-04-18T12:46:05Z</time>
      </trkpt>
      <trkpt lat="47.02248" lon="6.29056">
        <ele>457</ele>
        <time>2019-04-18T12:46:25Z</time>
      </trkpt>
      <trkpt lat="47.02246" lon="6.29038">
        <ele>457</ele>
        <time>2019-04-18T12:46:40Z</time>
      </trkpt>
      <trkpt lat="47.02247" lon="6.29024">
        <ele>455</ele>
        <time>2019-04-18T12:46:49Z</time>
      </trkpt>
      <trkpt lat="47.02239" lon="6.29001">
        <ele>455</ele>
        <time>2019-04-18T12:47:08Z</time>
      </trkpt>
      <trkpt lat="47.02238" lon="6.28979">
        <ele>455</ele>
        <time>2019-04-18T12:47:33Z</time>
      </trkpt>
      <trkpt lat="47.02236" lon="6.28965">
        <ele>454</ele>
        <time>2019-04-18T12:47:42Z</time>
      </trkpt>
      <trkpt lat="47.02214" lon="6.2893">
        <ele>451</ele>
        <time>2019-04-18T12:48:11Z</time>
      </trkpt>
      <trkpt lat="47.02205" lon="6.28921">
        <ele>451</ele>
        <time>2019-04-18T12:48:22Z</time>
      </trkpt>
      <trkpt lat="47.02184" lon="6.28888">
        <ele>449</ele>
        <time>2019-04-18T12:48:52Z</time>
      </trkpt>
      <trkpt lat="47.0218" lon="6.28885">
        <ele>449</ele>
        <time>2019-04-18T12:48:57Z</time>
      </trkpt>
      <trkpt lat="47.02175" lon="6.2888">
        <ele>447</ele>
        <time>2019-04-18T12:49:04Z</time>
      </trkpt>
      <trkpt lat="47.0217" lon="6.28877">
        <ele>447</ele>
        <time>2019-04-18T12:49:09Z</time>
      </trkpt>
      <trkpt lat="47.02163" lon="6.28876">
        <ele>446</ele>
        <time>2019-04-18T12:49:19Z</time>
      </trkpt>
      <trkpt lat="47.02158" lon="6.28874">
        <ele>446</ele>
        <time>2019-04-18T12:49:25Z</time>
      </trkpt>
      <trkpt lat="47.02154" lon="6.28872">
        <ele>446</ele>
        <time>2019-04-18T12:49:30Z</time>
      </trkpt>
      <trkpt lat="47.02148" lon="6.28867">
        <ele>445</ele>
        <time>2019-04-18T12:49:44Z</time>
      </trkpt>
      <trkpt lat="47.02143" lon="6.28854">
        <ele>445</ele>
        <time>2019-04-18T12:49:53Z</time>
      </trkpt>
      <trkpt lat="47.02121" lon="6.28839">
        <ele>444</ele>
        <time>2019-04-18T12:50:19Z</time>
      </trkpt>
      <trkpt lat="47.02111" lon="6.28828">
        <ele>441</ele>
        <time>2019-04-18T12:50:43Z</time>
      </trkpt>
      <trkpt lat="47.02105" lon="6.28817">
        <ele>440</ele>
        <time>2019-04-18T12:50:53Z</time>
      </trkpt>
      <trkpt lat="47.02096" lon="6.28812">
        <ele>440</ele>
        <time>2019-04-18T12:51:00Z</time>
      </trkpt>
      <trkpt lat="47.02077" lon="6.28816">
        <ele>438</ele>
        <time>2019-04-18T12:51:14Z</time>
      </trkpt>
      <trkpt lat="47.02068" lon="6.28814">
        <ele>439</ele>
        <time>2019-04-18T12:51:21Z</time>
      </trkpt>
      <trkpt lat="47.02059" lon="6.2881">
        <ele>439</ele>
        <time>2019-04-18T12:51:29Z</time>
      </trkpt>
      <trkpt lat="47.02051" lon="6.288">
        <ele>439</ele>
        <time>2019-04-18T12:51:40Z</time>
      </trkpt>
      <trkpt lat="47.02047" lon="6.28788">
        <ele>439</ele>
        <time>2019-04-18T12:51:48Z</time>
      </trkpt>
      <trkpt lat="47.02044" lon="6.28773">
        <ele>441</ele>
        <time>2019-04-18T12:52:04Z</time>
      </trkpt>
      <trkpt lat="47.02047" lon="6.28753">
        <ele>442</ele>
        <time>2019-04-18T12:52:27Z</time>
      </trkpt>
      <trkpt lat="47.02049" lon="6.28735">
        <ele>442</ele>
        <time>2019-04-18T12:52:41Z</time>
      </trkpt>
      <trkpt lat="47.02056" lon="6.28718">
        <ele>441</ele>
        <time>2019-04-18T12:52:56Z</time>
      </trkpt>
      <trkpt lat="47.02062" lon="6.28706">
        <ele>440</ele>
        <time>2019-04-18T12:53:12Z</time>
      </trkpt>
      <trkpt lat="47.02072" lon="6.28697">
        <ele>441</ele>
        <time>2019-04-18T12:53:19Z</time>
      </trkpt>
      <trkpt lat="47.02071" lon="6.28684">
        <ele>438</ele>
        <time>2019-04-18T12:53:28Z</time>
      </trkpt>
      <trkpt lat="47.02071" lon="6.2867">
        <ele>438</ele>
        <time>2019-04-18T12:53:35Z</time>
      </trkpt>
      <trkpt lat="47.02076" lon="6.28659">
        <ele>439</ele>
        <time>2019-04-18T12:53:43Z</time>
      </trkpt>
      <trkpt lat="47.02072" lon="6.28648">
        <ele>443</ele>
        <time>2019-04-18T12:53:56Z</time>
      </trkpt>
      <trkpt lat="47.0208" lon="6.28638">
        <ele>443</ele>
        <time>2019-04-18T12:54:11Z</time>
      </trkpt>
      <trkpt lat="47.021" lon="6.28633">
        <ele>441</ele>
        <time>2019-04-18T12:54:23Z</time>
      </trkpt>
      <trkpt lat="47.02117" lon="6.28634">
        <ele>440</ele>
        <time>2019-04-18T12:54:35Z</time>
      </trkpt>
      <trkpt lat="47.02125" lon="6.28622">
        <ele>442</ele>
        <time>2019-04-18T12:55:01Z</time>
      </trkpt>
      <trkpt lat="47.02136" lon="6.28633">
        <ele>439</ele>
        <time>2019-04-18T12:55:40Z</time>
      </trkpt>
      <trkpt lat="47.02145" lon="6.2864">
        <ele>438</ele>
        <time>2019-04-18T12:55:55Z</time>
      </trkpt>
      <trkpt lat="47.02153" lon="6.28643">
        <ele>440</ele>
        <time>2019-04-18T12:56:51Z</time>
      </trkpt>
      <trkpt lat="47.02162" lon="6.28637">
        <ele>437</ele>
        <time>2019-04-18T12:57:09Z</time>
      </trkpt>
      <trkpt lat="47.02173" lon="6.28639">
        <ele>437</ele>
        <time>2019-04-18T12:57:22Z</time>
      </trkpt>
      <trkpt lat="47.02186" lon="6.28637">
        <ele>435</ele>
        <time>2019-04-18T12:58:11Z</time>
      </trkpt>
      <trkpt lat="47.02197" lon="6.28634">
        <ele>434</ele>
        <time>2019-04-18T12:58:19Z</time>
      </trkpt>
      <trkpt lat="47.02206" lon="6.28632">
        <ele>435</ele>
        <time>2019-04-18T12:58:45Z</time>
      </trkpt>
      <trkpt lat="47.02214" lon="6.28636">
        <ele>435</ele>
        <time>2019-04-18T12:59:03Z</time>
      </trkpt>
      <trkpt lat="47.02226" lon="6.28638">
        <ele>434</ele>
        <time>2019-04-18T12:59:21Z</time>
      </trkpt>
      <trkpt lat="47.02237" lon="6.28644">
        <ele>433</ele>
        <time>2019-04-18T12:59:40Z</time>
      </trkpt>
      <trkpt lat="47.02256" lon="6.28639">
        <ele>432</ele>
        <time>2019-04-18T13:00:02Z</time>
      </trkpt>
      <trkpt lat="47.02267" lon="6.2864">
        <ele>431</ele>
        <time>2019-04-18T13:00:13Z</time>
      </trkpt>
      <trkpt lat="47.02279" lon="6.28635">
        <ele>430</ele>
        <time>2019-04-18T13:00:29Z</time>
      </trkpt>
      <trkpt lat="47.02297" lon="6.28632">
        <ele>433</ele>
        <time>2019-04-18T13:00:45Z</time>
      </trkpt>
      <trkpt lat="47.02308" lon="6.28635">
        <ele>433</ele>
        <time>2019-04-18T13:00:58Z</time>
      </trkpt>
      <trkpt lat="47.02322" lon="6.28631">
        <ele>433</ele>
        <time>2019-04-18T13:01:13Z</time>
      </trkpt>
      <trkpt lat="47.0233" lon="6.28635">
        <ele>432</ele>
        <time>2019-04-18T13:01:21Z</time>
      </trkpt>
      <trkpt lat="47.02339" lon="6.28636">
        <ele>434</ele>
        <time>2019-04-18T13:01:32Z</time>
      </trkpt>
      <trkpt lat="47.02351" lon="6.28631">
        <ele>435</ele>
        <time>2019-04-18T13:01:48Z</time>
      </trkpt>
      <trkpt lat="47.02359" lon="6.28639">
        <ele>430</ele>
        <time>2019-04-18T13:02:01Z</time>
      </trkpt>
      <trkpt lat="47.02368" lon="6.2864">
        <ele>433</ele>
        <time>2019-04-18T13:02:09Z</time>
      </trkpt>
      <trkpt lat="47.02379" lon="6.28641">
        <ele>434</ele>
        <time>2019-04-18T13:02:24Z</time>
      </trkpt>
      <trkpt lat="47.02388" lon="6.28638">
        <ele>436</ele>
        <time>2019-04-18T13:02:33Z</time>
      </trkpt>
      <trkpt lat="47.02402" lon="6.28627">
        <ele>436</ele>
        <time>2019-04-18T13:02:51Z</time>
      </trkpt>
      <trkpt lat="47.02416" lon="6.28622">
        <ele>432</ele>
        <time>2019-04-18T13:03:09Z</time>
      </trkpt>
      <trkpt lat="47.02422" lon="6.28612">
        <ele>432</ele>
        <time>2019-04-18T13:04:04Z</time>
      </trkpt>
      <trkpt lat="47.02432" lon="6.28609">
        <ele>437</ele>
        <time>2019-04-18T13:04:18Z</time>
      </trkpt>
      <trkpt lat="47.02447" lon="6.28607">
        <ele>436</ele>
        <time>2019-04-18T13:04:36Z</time>
      </trkpt>
      <trkpt lat="47.02451" lon="6.28595">
        <ele>436</ele>
        <time>2019-04-18T13:05:08Z</time>
      </trkpt>
      <trkpt lat="47.02467" lon="6.2859">
        <ele>434</ele>
        <time>2019-04-18T13:05:46Z</time>
      </trkpt>
      <trkpt lat="47.02477" lon="6.28591">
        <ele>434</ele>
        <time>2019-04-18T13:05:54Z</time>
      </trkpt>
      <trkpt lat="47.02486" lon="6.28587">
        <ele>434</ele>
        <time>2019-04-18T13:06:13Z</time>
      </trkpt>
      <trkpt lat="47.02498" lon="6.28579">
        <ele>434</ele>
        <time>2019-04-18T13:06:33Z</time>
      </trkpt>
      <trkpt lat="47.02508" lon="6.28575">
        <ele>435</ele>
        <time>2019-04-18T13:07:02Z</time>
      </trkpt>
      <trkpt lat="47.02521" lon="6.28578">
        <ele>435</ele>
        <time>2019-04-18T13:07:26Z</time>
      </trkpt>
      <trkpt lat="47.02531" lon="6.28577">
        <ele>434</ele>
        <time>2019-04-18T13:07:32Z</time>
      </trkpt>
      <trkpt lat="47.02546" lon="6.2858">
        <ele>437</ele>
        <time>2019-04-18T13:07:48Z</time>
      </trkpt>
      <trkpt lat="47.02554" lon="6.28585">
        <ele>434</ele>
        <time>2019-04-18T13:08:11Z</time>
      </trkpt>
      <trkpt lat="47.02566" lon="6.28586">
        <ele>436</ele>
        <time>2019-04-18T13:08:29Z</time>
      </trkpt>
      <trkpt lat="47.02575" lon="6.28582">
        <ele>435</ele>
        <time>2019-04-18T13:08:39Z</time>
      </trkpt>
      <trkpt lat="47.02587" lon="6.28587">
        <ele>436</ele>
        <time>2019-04-18T13:08:56Z</time>
      </trkpt>
      <trkpt lat="47.02596" lon="6.28589">
        <ele>433</ele>
        <time>2019-04-18T13:09:07Z</time>
      </trkpt>
      <trkpt lat="47.02609" lon="6.28595">
        <ele>433</ele>
        <time>2019-04-18T13:09:27Z</time>
      </trkpt>
      <trkpt lat="47.02618" lon="6.28598">
        <ele>435</ele>
        <time>2019-04-18T13:09:36Z</time>
      </trkpt>
      <trkpt lat="47.0263" lon="6.28592">
        <ele>434</ele>
        <time>2019-04-18T13:09:45Z</time>
      </trkpt>
      <trkpt lat="47.02642" lon="6.28608">
        <ele>433</ele>
        <time>2019-04-18T13:10:21Z</time>
      </trkpt>
      <trkpt lat="47.02655" lon="6.28618">
        <ele>433</ele>
        <time>2019-04-18T13:10:39Z</time>
      </trkpt>
      <trkpt lat="47.02675" lon="6.286">
        <ele>422</ele>
        <time>2019-04-18T13:10:55Z</time>
      </trkpt>
      <trkpt lat="47.02684" lon="6.28601">
        <ele>422</ele>
        <time>2019-04-18T13:11:03Z</time>
      </trkpt>
      <trkpt lat="47.02709" lon="6.286">
        <ele>417</ele>
        <time>2019-04-18T13:11:33Z</time>
      </trkpt>
      <trkpt lat="47.02718" lon="6.28594">
        <ele>417</ele>
        <time>2019-04-18T13:11:48Z</time>
      </trkpt>
      <trkpt lat="47.02731" lon="6.28578">
        <ele>411</ele>
        <time>2019-04-18T13:12:10Z</time>
      </trkpt>
      <trkpt lat="47.02739" lon="6.28568">
        <ele>410</ele>
        <time>2019-04-18T13:12:25Z</time>
      </trkpt>
      <trkpt lat="47.02746" lon="6.28555">
        <ele>410</ele>
        <time>2019-04-18T13:12:47Z</time>
      </trkpt>
      <trkpt lat="47.02746" lon="6.28563">
        <ele>404</ele>
        <time>2019-04-18T13:16:11Z</time>
      </trkpt>
      <trkpt lat="47.02757" lon="6.28555">
        <ele>404</ele>
        <time>2019-04-18T13:16:44Z</time>
      </trkpt>
      <trkpt lat="47.02756" lon="6.28555">
        <ele>405</ele>
        <time>2019-04-18T13:17:51Z</time>
      </trkpt>
      <trkpt lat="47.02745" lon="6.28573">
        <ele>406</ele>
        <time>2019-04-18T13:18:11Z</time>
      </trkpt>
      <trkpt lat="47.02746" lon="6.2859">
        <ele>404</ele>
        <time>2019-04-18T13:21:10Z</time>
      </trkpt>
      <trkpt lat="47.02746" lon="6.28606">
        <ele>407</ele>
        <time>2019-04-18T13:21:22Z</time>
      </trkpt>
      <trkpt lat="47.02755" lon="6.28615">
        <ele>409</ele>
        <time>2019-04-18T13:21:43Z</time>
      </trkpt>
      <trkpt lat="47.02769" lon="6.28612">
        <ele>406</ele>
        <time>2019-04-18T13:22:02Z</time>
      </trkpt>
      <trkpt lat="47.02778" lon="6.28611">
        <ele>407</ele>
        <time>2019-04-18T13:22:35Z</time>
      </trkpt>
      <trkpt lat="47.02786" lon="6.28616">
        <ele>404</ele>
        <time>2019-04-18T13:22:48Z</time>
      </trkpt>
      <trkpt lat="47.02796" lon="6.28621">
        <ele>404</ele>
        <time>2019-04-18T13:22:57Z</time>
      </trkpt>
      <trkpt lat="47.02801" lon="6.28635">
        <ele>405</ele>
        <time>2019-04-18T13:23:05Z</time>
      </trkpt>
      <trkpt lat="47.02801" lon="6.28648">
        <ele>404</ele>
        <time>2019-04-18T13:23:12Z</time>
      </trkpt>
      <trkpt lat="47.02802" lon="6.2866">
        <ele>404</ele>
        <time>2019-04-18T13:23:20Z</time>
      </trkpt>
      <trkpt lat="47.02806" lon="6.28675">
        <ele>405</ele>
        <time>2019-04-18T13:23:31Z</time>
      </trkpt>
      <trkpt lat="47.02805" lon="6.28689">
        <ele>406</ele>
        <time>2019-04-18T13:23:39Z</time>
      </trkpt>
      <trkpt lat="47.02798" lon="6.28699">
        <ele>405</ele>
        <time>2019-04-18T13:23:47Z</time>
      </trkpt>
      <trkpt lat="47.02802" lon="6.28712">
        <ele>406</ele>
        <time>2019-04-18T13:24:07Z</time>
      </trkpt>
      <trkpt lat="47.02806" lon="6.2873">
        <ele>407</ele>
        <time>2019-04-18T13:24:31Z</time>
      </trkpt>
      <trkpt lat="47.02816" lon="6.28757">
        <ele>411</ele>
        <time>2019-04-18T13:25:02Z</time>
      </trkpt>
      <trkpt lat="47.02807" lon="6.28766">
        <ele>411</ele>
        <time>2019-04-18T13:25:11Z</time>
      </trkpt>
      <trkpt lat="47.02815" lon="6.28775">
        <ele>411</ele>
        <time>2019-04-18T13:25:23Z</time>
      </trkpt>
      <trkpt lat="47.02829" lon="6.28786">
        <ele>413</ele>
        <time>2019-04-18T13:25:48Z</time>
      </trkpt>
      <trkpt lat="47.02831" lon="6.28801">
        <ele>418</ele>
        <time>2019-04-18T13:26:32Z</time>
      </trkpt>
      <trkpt lat="47.0282" lon="6.28804">
        <ele>414</ele>
        <time>2019-04-18T13:26:59Z</time>
      </trkpt>
      <trkpt lat="47.02822" lon="6.2882">
        <ele>419</ele>
        <time>2019-04-18T13:27:17Z</time>
      </trkpt>
      <trkpt lat="47.02832" lon="6.28811">
        <ele>416</ele>
        <time>2019-04-18T13:27:31Z</time>
      </trkpt>
      <trkpt lat="47.02839" lon="6.28802">
        <ele>416</ele>
        <time>2019-04-18T13:27:38Z</time>
      </trkpt>
      <trkpt lat="47.02843" lon="6.28831">
        <ele>418</ele>
        <time>2019-04-18T13:28:23Z</time>
      </trkpt>
      <trkpt lat="47.02856" lon="6.28851">
        <ele>425</ele>
        <time>2019-04-18T13:29:01Z</time>
      </trkpt>
      <trkpt lat="47.02868" lon="6.28847">
        <ele>425</ele>
        <time>2019-04-18T13:29:16Z</time>
      </trkpt>
      <trkpt lat="47.02863" lon="6.28827">
        <ele>426</ele>
        <time>2019-04-18T13:33:16Z</time>
      </trkpt>
      <trkpt lat="47.0286" lon="6.28815">
        <ele>423</ele>
        <time>2019-04-18T13:33:22Z</time>
      </trkpt>
      <trkpt lat="47.02869" lon="6.28803">
        <ele>423</ele>
        <time>2019-04-18T13:33:55Z</time>
      </trkpt>
      <trkpt lat="47.02868" lon="6.2879">
        <ele>424</ele>
        <time>2019-04-18T13:34:05Z</time>
      </trkpt>
      <trkpt lat="47.02874" lon="6.28781">
        <ele>428</ele>
        <time>2019-04-18T13:34:17Z</time>
      </trkpt>
      <trkpt lat="47.02867" lon="6.28772">
        <ele>429</ele>
        <time>2019-04-18T13:34:26Z</time>
      </trkpt>
      <trkpt lat="47.02872" lon="6.28758">
        <ele>429</ele>
        <time>2019-04-18T13:34:33Z</time>
      </trkpt>
      <trkpt lat="47.02877" lon="6.28746">
        <ele>433</ele>
        <time>2019-04-18T13:34:39Z</time>
      </trkpt>
      <trkpt lat="47.0287" lon="6.28732">
        <ele>428</ele>
        <time>2019-04-18T13:35:07Z</time>
      </trkpt>
      <trkpt lat="47.02869" lon="6.28713">
        <ele>427</ele>
        <time>2019-04-18T13:35:24Z</time>
      </trkpt>
      <trkpt lat="47.02863" lon="6.28703">
        <ele>426</ele>
        <time>2019-04-18T13:35:42Z</time>
      </trkpt>
      <trkpt lat="47.02856" lon="6.28718">
        <ele>431</ele>
        <time>2019-04-18T13:36:19Z</time>
      </trkpt>
      <trkpt lat="47.02871" lon="6.2874">
        <ele>435</ele>
        <time>2019-04-18T13:36:51Z</time>
      </trkpt>
      <trkpt lat="47.02881" lon="6.28744">
        <ele>437</ele>
        <time>2019-04-18T13:37:10Z</time>
      </trkpt>
      <trkpt lat="47.02892" lon="6.28768">
        <ele>443</ele>
        <time>2019-04-18T13:37:48Z</time>
      </trkpt>
      <trkpt lat="47.02909" lon="6.2875">
        <ele>444</ele>
        <time>2019-04-18T13:38:04Z</time>
      </trkpt>
      <trkpt lat="47.02907" lon="6.28737">
        <ele>445</ele>
        <time>2019-04-18T13:38:11Z</time>
      </trkpt>
      <trkpt lat="47.02902" lon="6.28727">
        <ele>445</ele>
        <time>2019-04-18T13:38:17Z</time>
      </trkpt>
      <trkpt lat="47.02915" lon="6.28725">
        <ele>455</ele>
        <time>2019-04-18T13:38:54Z</time>
      </trkpt>
      <trkpt lat="47.02914" lon="6.28739">
        <ele>453</ele>
        <time>2019-04-18T13:39:24Z</time>
      </trkpt>
      <trkpt lat="47.0291" lon="6.28755">
        <ele>456</ele>
        <time>2019-04-18T13:39:40Z</time>
      </trkpt>
      <trkpt lat="47.02906" lon="6.28766">
        <ele>457</ele>
        <time>2019-04-18T13:39:50Z</time>
      </trkpt>
      <trkpt lat="47.02915" lon="6.28772">
        <ele>456</ele>
        <time>2019-04-18T13:40:15Z</time>
      </trkpt>
      <trkpt lat="47.02919" lon="6.28786">
        <ele>458</ele>
        <time>2019-04-18T13:40:39Z</time>
      </trkpt>
      <trkpt lat="47.02914" lon="6.28798">
        <ele>455</ele>
        <time>2019-04-18T13:41:24Z</time>
      </trkpt>
      <trkpt lat="47.02921" lon="6.28819">
        <ele>452</ele>
        <time>2019-04-18T13:42:44Z</time>
      </trkpt>
      <trkpt lat="47.02911" lon="6.28814">
        <ele>454</ele>
        <time>2019-04-18T13:43:17Z</time>
      </trkpt>
      <trkpt lat="47.02905" lon="6.28798">
        <ele>448</ele>
        <time>2019-04-18T13:44:21Z</time>
      </trkpt>
      <trkpt lat="47.02887" lon="6.28814">
        <ele>443</ele>
        <time>2019-04-18T13:45:04Z</time>
      </trkpt>
      <trkpt lat="47.02904" lon="6.28773">
        <ele>460</ele>
        <time>2019-04-18T13:53:56Z</time>
      </trkpt>
      <trkpt lat="47.02919" lon="6.28757">
        <ele>469</ele>
        <time>2019-04-18T13:54:16Z</time>
      </trkpt>
      <trkpt lat="47.02914" lon="6.28761">
        <ele>466</ele>
        <time>2019-04-18T13:54:30Z</time>
      </trkpt>
      <trkpt lat="47.02909" lon="6.28749">
        <ele>469</ele>
        <time>2019-04-18T13:54:55Z</time>
      </trkpt>
      <trkpt lat="47.0291" lon="6.28735">
        <ele>469</ele>
        <time>2019-04-18T13:55:05Z</time>
      </trkpt>
      <trkpt lat="47.02922" lon="6.2872">
        <ele>467</ele>
        <time>2019-04-18T13:55:35Z</time>
      </trkpt>
      <trkpt lat="47.02929" lon="6.28708">
        <ele>466</ele>
        <time>2019-04-18T13:55:55Z</time>
      </trkpt>
      <trkpt lat="47.02938" lon="6.28705">
        <ele>465</ele>
        <time>2019-04-18T13:56:13Z</time>
      </trkpt>
      <trkpt lat="47.02948" lon="6.28705">
        <ele>465</ele>
        <time>2019-04-18T13:56:31Z</time>
      </trkpt>
      <trkpt lat="47.02968" lon="6.2872">
        <ele>465</ele>
        <time>2019-04-18T13:56:50Z</time>
      </trkpt>
      <trkpt lat="47.02967" lon="6.28737">
        <ele>466</ele>
        <time>2019-04-18T13:57:08Z</time>
      </trkpt>
      <trkpt lat="47.02984" lon="6.28745">
        <ele>467</ele>
        <time>2019-04-18T13:57:29Z</time>
      </trkpt>
      <trkpt lat="47.02994" lon="6.28744">
        <ele>468</ele>
        <time>2019-04-18T13:57:35Z</time>
      </trkpt>
      <trkpt lat="47.03004" lon="6.2874">
        <ele>468</ele>
        <time>2019-04-18T13:57:44Z</time>
      </trkpt>
      <trkpt lat="47.03024" lon="6.28741">
        <ele>469</ele>
        <time>2019-04-18T13:57:53Z</time>
      </trkpt>
      <trkpt lat="47.03033" lon="6.28736">
        <ele>471</ele>
        <time>2019-04-18T13:58:01Z</time>
      </trkpt>
      <trkpt lat="47.0304" lon="6.28721">
        <ele>470</ele>
        <time>2019-04-18T13:58:21Z</time>
      </trkpt>
      <trkpt lat="47.03053" lon="6.2872">
        <ele>472</ele>
        <time>2019-04-18T13:58:27Z</time>
      </trkpt>
      <trkpt lat="47.03071" lon="6.28707">
        <ele>473</ele>
        <time>2019-04-18T13:58:41Z</time>
      </trkpt>
      <trkpt lat="47.03081" lon="6.28692">
        <ele>473</ele>
        <time>2019-04-18T13:58:57Z</time>
      </trkpt>
      <trkpt lat="47.0309" lon="6.28695">
        <ele>472</ele>
        <time>2019-04-18T13:59:02Z</time>
      </trkpt>
      <trkpt lat="47.03092" lon="6.28688">
        <ele>472</ele>
        <time>2019-04-18T13:59:14Z</time>
      </trkpt>
      <trkpt lat="47.03102" lon="6.28676">
        <ele>472</ele>
        <time>2019-04-18T13:59:33Z</time>
      </trkpt>
      <trkpt lat="47.0311" lon="6.28671">
        <ele>472</ele>
        <time>2019-04-18T13:59:45Z</time>
      </trkpt>
      <trkpt lat="47.03123" lon="6.28653">
        <ele>470</ele>
        <time>2019-04-18T14:00:10Z</time>
      </trkpt>
      <trkpt lat="47.03128" lon="6.28641">
        <ele>469</ele>
        <time>2019-04-18T14:00:20Z</time>
      </trkpt>
      <trkpt lat="47.03137" lon="6.28633">
        <ele>468</ele>
        <time>2019-04-18T14:00:28Z</time>
      </trkpt>
      <trkpt lat="47.03154" lon="6.28624">
        <ele>468</ele>
        <time>2019-04-18T14:00:42Z</time>
      </trkpt>
      <trkpt lat="47.03166" lon="6.28609">
        <ele>467</ele>
        <time>2019-04-18T14:00:58Z</time>
      </trkpt>
      <trkpt lat="47.03175" lon="6.28606">
        <ele>467</ele>
        <time>2019-04-18T14:01:03Z</time>
      </trkpt>
      <trkpt lat="47.03178" lon="6.28591">
        <ele>465</ele>
        <time>2019-04-18T14:01:15Z</time>
      </trkpt>
      <trkpt lat="47.03185" lon="6.28581">
        <ele>463</ele>
        <time>2019-04-18T14:01:30Z</time>
      </trkpt>
      <trkpt lat="47.03196" lon="6.28577">
        <ele>461</ele>
        <time>2019-04-18T14:01:44Z</time>
      </trkpt>
      <trkpt lat="47.03206" lon="6.28558">
        <ele>459</ele>
        <time>2019-04-18T14:02:03Z</time>
      </trkpt>
      <trkpt lat="47.0322" lon="6.28552">
        <ele>458</ele>
        <time>2019-04-18T14:02:18Z</time>
      </trkpt>
      <trkpt lat="47.0323" lon="6.28551">
        <ele>459</ele>
        <time>2019-04-18T14:02:25Z</time>
      </trkpt>
      <trkpt lat="47.03238" lon="6.28538">
        <ele>459</ele>
        <time>2019-04-18T14:02:46Z</time>
      </trkpt>
      <trkpt lat="47.03256" lon="6.28509">
        <ele>457</ele>
        <time>2019-04-18T14:03:17Z</time>
      </trkpt>
      <trkpt lat="47.0329" lon="6.28486">
        <ele>454</ele>
        <time>2019-04-18T14:03:47Z</time>
      </trkpt>
      <trkpt lat="47.03297" lon="6.28473">
        <ele>449</ele>
        <time>2019-04-18T14:03:59Z</time>
      </trkpt>
      <trkpt lat="47.03322" lon="6.28449">
        <ele>441</ele>
        <time>2019-04-18T14:04:36Z</time>
      </trkpt>
      <trkpt lat="47.03333" lon="6.28448">
        <ele>437</ele>
        <time>2019-04-18T14:05:08Z</time>
      </trkpt>
      <trkpt lat="47.03348" lon="6.28451">
        <ele>433</ele>
        <time>2019-04-18T14:05:26Z</time>
      </trkpt>
      <trkpt lat="47.03357" lon="6.28451">
        <ele>432</ele>
        <time>2019-04-18T14:05:35Z</time>
      </trkpt>
      <trkpt lat="47.03368" lon="6.28448">
        <ele>431</ele>
        <time>2019-04-18T14:05:47Z</time>
      </trkpt>
      <trkpt lat="47.03378" lon="6.28451">
        <ele>432</ele>
        <time>2019-04-18T14:05:53Z</time>
      </trkpt>
      <trkpt lat="47.03396" lon="6.28453">
        <ele>430</ele>
        <time>2019-04-18T14:06:09Z</time>
      </trkpt>
      <trkpt lat="47.03399" lon="6.2844">
        <ele>429</ele>
        <time>2019-04-18T14:06:18Z</time>
      </trkpt>
      <trkpt lat="47.03387" lon="6.28426">
        <ele>427</ele>
        <time>2019-04-18T14:06:27Z</time>
      </trkpt>
      <trkpt lat="47.03368" lon="6.28421">
        <ele>423</ele>
        <time>2019-04-18T14:06:43Z</time>
      </trkpt>
      <trkpt lat="47.03359" lon="6.28423">
        <ele>422</ele>
        <time>2019-04-18T14:06:52Z</time>
      </trkpt>
      <trkpt lat="47.0335" lon="6.2842">
        <ele>422</ele>
        <time>2019-04-18T14:07:01Z</time>
      </trkpt>
      <trkpt lat="47.03335" lon="6.28418">
        <ele>420</ele>
        <time>2019-04-18T14:07:12Z</time>
      </trkpt>
      <trkpt lat="47.03326" lon="6.28411">
        <ele>420</ele>
        <time>2019-04-18T14:07:18Z</time>
      </trkpt>
      <trkpt lat="47.03317" lon="6.28409">
        <ele>419</ele>
        <time>2019-04-18T14:07:27Z</time>
      </trkpt>
      <trkpt lat="47.03307" lon="6.28403">
        <ele>418</ele>
        <time>2019-04-18T14:07:36Z</time>
      </trkpt>
      <trkpt lat="47.0329" lon="6.28394">
        <ele>415</ele>
        <time>2019-04-18T14:07:49Z</time>
      </trkpt>
      <trkpt lat="47.0328" lon="6.28393">
        <ele>415</ele>
        <time>2019-04-18T14:07:58Z</time>
      </trkpt>
      <trkpt lat="47.0327" lon="6.28401">
        <ele>414</ele>
        <time>2019-04-18T14:08:06Z</time>
      </trkpt>
      <trkpt lat="47.03261" lon="6.28396">
        <ele>413</ele>
        <time>2019-04-18T14:08:14Z</time>
      </trkpt>
      <trkpt lat="47.03262" lon="6.2838">
        <ele>410</ele>
        <time>2019-04-18T14:08:27Z</time>
      </trkpt>
      <trkpt lat="47.0329" lon="6.28376">
        <ele>407</ele>
        <time>2019-04-18T14:08:50Z</time>
      </trkpt>
      <trkpt lat="47.03299" lon="6.28381">
        <ele>406</ele>
        <time>2019-04-18T14:08:57Z</time>
      </trkpt>
      <trkpt lat="47.03311" lon="6.28381">
        <ele>405</ele>
        <time>2019-04-18T14:09:09Z</time>
      </trkpt>
      <trkpt lat="47.03318" lon="6.28381">
        <ele>406</ele>
        <time>2019-04-18T14:09:18Z</time>
      </trkpt>
      <trkpt lat="47.03329" lon="6.28386">
        <ele>406</ele>
        <time>2019-04-18T14:09:26Z</time>
      </trkpt>
      <trkpt lat="47.03338" lon="6.28388">
        <ele>406</ele>
        <time>2019-04-18T14:09:33Z</time>
      </trkpt>
      <trkpt lat="47.03352" lon="6.28381">
        <ele>405</ele>
        <time>2019-04-18T14:09:47Z</time>
      </trkpt>
      <trkpt lat="47.03379" lon="6.28385">
        <ele>405</ele>
        <time>2019-04-18T14:10:00Z</time>
      </trkpt>
      <trkpt lat="47.03402" lon="6.28378">
        <ele>404</ele>
        <time>2019-04-18T14:10:34Z</time>
      </trkpt>
      <trkpt lat="47.03411" lon="6.28376">
        <ele>403</ele>
        <time>2019-04-18T14:10:41Z</time>
      </trkpt>
      <trkpt lat="47.03427" lon="6.2838">
        <ele>403</ele>
        <time>2019-04-18T14:10:51Z</time>
      </trkpt>
      <trkpt lat="47.03437" lon="6.28384">
        <ele>403</ele>
        <time>2019-04-18T14:10:57Z</time>
      </trkpt>
      <trkpt lat="47.03442" lon="6.28396">
        <ele>404</ele>
        <time>2019-04-18T14:11:09Z</time>
      </trkpt>
      <trkpt lat="47.03455" lon="6.28403">
        <ele>404</ele>
        <time>2019-04-18T14:11:18Z</time>
      </trkpt>
      <trkpt lat="47.03449" lon="6.2842">
        <ele>404</ele>
        <time>2019-04-18T14:11:34Z</time>
      </trkpt>
      <trkpt lat="47.0345" lon="6.28435">
        <ele>402</ele>
        <time>2019-04-18T14:12:01Z</time>
      </trkpt>
      <trkpt lat="47.03439" lon="6.28435">
        <ele>403</ele>
        <time>2019-04-18T14:12:04Z</time>
      </trkpt>
      <trkpt lat="47.03448" lon="6.28445">
        <ele>403</ele>
        <time>2019-04-18T14:12:15Z</time>
      </trkpt>
      <trkpt lat="47.03441" lon="6.2846">
        <ele>408</ele>
        <time>2019-04-18T14:12:27Z</time>
      </trkpt>
      <trkpt lat="47.03481" lon="6.28491">
        <ele>409</ele>
        <time>2019-04-18T14:13:06Z</time>
      </trkpt>
      <trkpt lat="47.03489" lon="6.28497">
        <ele>410</ele>
        <time>2019-04-18T14:13:10Z</time>
      </trkpt>
      <trkpt lat="47.03485" lon="6.2851">
        <ele>413</ele>
        <time>2019-04-18T14:13:48Z</time>
      </trkpt>
      <trkpt lat="47.03493" lon="6.28519">
        <ele>413</ele>
        <time>2019-04-18T14:14:01Z</time>
      </trkpt>
      <trkpt lat="47.03503" lon="6.28527">
        <ele>414</ele>
        <time>2019-04-18T14:14:11Z</time>
      </trkpt>
      <trkpt lat="47.03502" lon="6.28541">
        <ele>419</ele>
        <time>2019-04-18T14:14:44Z</time>
      </trkpt>
      <trkpt lat="47.03504" lon="6.28539">
        <ele>422</ele>
        <time>2019-04-18T14:15:30Z</time>
      </trkpt>
      <trkpt lat="47.03509" lon="6.28549">
        <ele>424</ele>
        <time>2019-04-18T14:16:25Z</time>
      </trkpt>
      <trkpt lat="47.03519" lon="6.28548">
        <ele>423</ele>
        <time>2019-04-18T14:16:35Z</time>
      </trkpt>
      <trkpt lat="47.03502" lon="6.28532">
        <ele>422</ele>
        <time>2019-04-18T14:17:26Z</time>
      </trkpt>
      <trkpt lat="47.03509" lon="6.28543">
        <ele>425</ele>
        <time>2019-04-18T14:17:49Z</time>
      </trkpt>
      <trkpt lat="47.03504" lon="6.28539">
        <ele>421</ele>
        <time>2019-04-18T14:20:05Z</time>
      </trkpt>
      <trkpt lat="47.03509" lon="6.28525">
        <ele>417</ele>
        <time>2019-04-18T14:21:10Z</time>
      </trkpt>
      <trkpt lat="47.03497" lon="6.28524">
        <ele>414</ele>
        <time>2019-04-18T14:23:45Z</time>
      </trkpt>
      <trkpt lat="47.03503" lon="6.28512">
        <ele>409</ele>
        <time>2019-04-18T14:24:07Z</time>
      </trkpt>
      <trkpt lat="47.03499" lon="6.28499">
        <ele>407</ele>
        <time>2019-04-18T14:24:30Z</time>
      </trkpt>
      <trkpt lat="47.0349" lon="6.2849">
        <ele>406</ele>
        <time>2019-04-18T14:24:48Z</time>
      </trkpt>
      <trkpt lat="47.0348" lon="6.28479">
        <ele>405</ele>
        <time>2019-04-18T14:25:00Z</time>
      </trkpt>
      <trkpt lat="47.03474" lon="6.28465">
        <ele>404</ele>
        <time>2019-04-18T14:25:20Z</time>
      </trkpt>
      <trkpt lat="47.03466" lon="6.28459">
        <ele>404</ele>
        <time>2019-04-18T14:25:27Z</time>
      </trkpt>
      <trkpt lat="47.03474" lon="6.2844">
        <ele>401</ele>
        <time>2019-04-18T14:25:54Z</time>
      </trkpt>
      <trkpt lat="47.03475" lon="6.2842">
        <ele>395</ele>
        <time>2019-04-18T14:26:22Z</time>
      </trkpt>
      <trkpt lat="47.03489" lon="6.28406">
        <ele>392</ele>
        <time>2019-04-18T14:26:44Z</time>
      </trkpt>
      <trkpt lat="47.03499" lon="6.28387">
        <ele>391</ele>
        <time>2019-04-18T14:27:03Z</time>
      </trkpt>
      <trkpt lat="47.03502" lon="6.28372">
        <ele>390</ele>
        <time>2019-04-18T14:27:13Z</time>
      </trkpt>
      <trkpt lat="47.03513" lon="6.28361">
        <ele>388</ele>
        <time>2019-04-18T14:27:36Z</time>
      </trkpt>
      <trkpt lat="47.03521" lon="6.28352">
        <ele>389</ele>
        <time>2019-04-18T14:27:46Z</time>
      </trkpt>
      <trkpt lat="47.03535" lon="6.28336">
        <ele>386</ele>
        <time>2019-04-18T14:28:02Z</time>
      </trkpt>
      <trkpt lat="47.03544" lon="6.2833">
        <ele>386</ele>
        <time>2019-04-18T14:28:09Z</time>
      </trkpt>
      <trkpt lat="47.03552" lon="6.28326">
        <ele>386</ele>
        <time>2019-04-18T14:28:16Z</time>
      </trkpt>
      <trkpt lat="47.03563" lon="6.28315">
        <ele>388</ele>
        <time>2019-04-18T14:28:27Z</time>
      </trkpt>
      <trkpt lat="47.03571" lon="6.2831">
        <ele>388</ele>
        <time>2019-04-18T14:28:33Z</time>
      </trkpt>
      <trkpt lat="47.03605" lon="6.2827">
        <ele>389</ele>
        <time>2019-04-18T14:29:11Z</time>
      </trkpt>
      <trkpt lat="47.03614" lon="6.28263">
        <ele>389</ele>
        <time>2019-04-18T14:29:18Z</time>
      </trkpt>
      <trkpt lat="47.03621" lon="6.28254">
        <ele>390</ele>
        <time>2019-04-18T14:29:25Z</time>
      </trkpt>
      <trkpt lat="47.03629" lon="6.28245">
        <ele>389</ele>
        <time>2019-04-18T14:29:34Z</time>
      </trkpt>
      <trkpt lat="47.03633" lon="6.28233">
        <ele>388</ele>
        <time>2019-04-18T14:29:42Z</time>
      </trkpt>
      <trkpt lat="47.03643" lon="6.28209">
        <ele>388</ele>
        <time>2019-04-18T14:29:58Z</time>
      </trkpt>
      <trkpt lat="47.03648" lon="6.28196">
        <ele>388</ele>
        <time>2019-04-18T14:30:06Z</time>
      </trkpt>
      <trkpt lat="47.0366" lon="6.28158">
        <ele>386</ele>
        <time>2019-04-18T14:30:29Z</time>
      </trkpt>
      <trkpt lat="47.03666" lon="6.28147">
        <ele>387</ele>
        <time>2019-04-18T14:30:37Z</time>
      </trkpt>
      <trkpt lat="47.03669" lon="6.28131">
        <ele>384</ele>
        <time>2019-04-18T14:30:57Z</time>
      </trkpt>
      <trkpt lat="47.03683" lon="6.2811">
        <ele>383</ele>
        <time>2019-04-18T14:31:35Z</time>
      </trkpt>
      <trkpt lat="47.03689" lon="6.281">
        <ele>382</ele>
        <time>2019-04-18T14:31:42Z</time>
      </trkpt>
      <trkpt lat="47.03701" lon="6.28077">
        <ele>384</ele>
        <time>2019-04-18T14:31:58Z</time>
      </trkpt>
      <trkpt lat="47.03704" lon="6.28064">
        <ele>384</ele>
        <time>2019-04-18T14:32:06Z</time>
      </trkpt>
      <trkpt lat="47.03714" lon="6.2804">
        <ele>383</ele>
        <time>2019-04-18T14:32:22Z</time>
      </trkpt>
      <trkpt lat="47.03716" lon="6.28026">
        <ele>382</ele>
        <time>2019-04-18T14:32:31Z</time>
      </trkpt>
      <trkpt lat="47.03729" lon="6.27975">
        <ele>381</ele>
        <time>2019-04-18T14:33:03Z</time>
      </trkpt>
      <trkpt lat="47.03741" lon="6.27937">
        <ele>380</ele>
        <time>2019-04-18T14:33:26Z</time>
      </trkpt>
      <trkpt lat="47.0376" lon="6.27888">
        <ele>381</ele>
        <time>2019-04-18T14:34:01Z</time>
      </trkpt>
      <trkpt lat="47.03763" lon="6.27876">
        <ele>381</ele>
        <time>2019-04-18T14:34:08Z</time>
      </trkpt>
      <trkpt lat="47.03764" lon="6.27862">
        <ele>381</ele>
        <time>2019-04-18T14:34:17Z</time>
      </trkpt>
      <trkpt lat="47.03766" lon="6.27848">
        <ele>382</ele>
        <time>2019-04-18T14:34:26Z</time>
      </trkpt>
      <trkpt lat="47.03777" lon="6.27822">
        <ele>384</ele>
        <time>2019-04-18T14:34:49Z</time>
      </trkpt>
      <trkpt lat="47.0378" lon="6.27808">
        <ele>384</ele>
        <time>2019-04-18T14:34:59Z</time>
      </trkpt>
      <trkpt lat="47.038" lon="6.27763">
        <ele>388</ele>
        <time>2019-04-18T14:35:43Z</time>
      </trkpt>
      <trkpt lat="47.03803" lon="6.2775">
        <ele>388</ele>
        <time>2019-04-18T14:35:58Z</time>
      </trkpt>
      <trkpt lat="47.03812" lon="6.27726">
        <ele>392</ele>
        <time>2019-04-18T14:36:20Z</time>
      </trkpt>
      <trkpt lat="47.03823" lon="6.27718">
        <ele>394</ele>
        <time>2019-04-18T14:36:40Z</time>
      </trkpt>
      <trkpt lat="47.03832" lon="6.27725">
        <ele>397</ele>
        <time>2019-04-18T14:36:57Z</time>
      </trkpt>
      <trkpt lat="47.03839" lon="6.27737">
        <ele>400</ele>
        <time>2019-04-18T14:37:21Z</time>
      </trkpt>
      <trkpt lat="47.03853" lon="6.27709">
        <ele>405</ele>
        <time>2019-04-18T14:37:57Z</time>
      </trkpt>
      <trkpt lat="47.03861" lon="6.27695">
        <ele>406</ele>
        <time>2019-04-18T14:38:09Z</time>
      </trkpt>
      <trkpt lat="47.03876" lon="6.27677">
        <ele>409</ele>
        <time>2019-04-18T14:38:29Z</time>
      </trkpt>
      <trkpt lat="47.03889" lon="6.27634">
        <ele>413</ele>
        <time>2019-04-18T14:39:02Z</time>
      </trkpt>
      <trkpt lat="47.03892" lon="6.27621">
        <ele>414</ele>
        <time>2019-04-18T14:39:12Z</time>
      </trkpt>
      <trkpt lat="47.03894" lon="6.27606">
        <ele>415</ele>
        <time>2019-04-18T14:39:21Z</time>
      </trkpt>
      <trkpt lat="47.03889" lon="6.27583">
        <ele>415</ele>
        <time>2019-04-18T14:39:40Z</time>
      </trkpt>
      <trkpt lat="47.03892" lon="6.27568">
        <ele>416</ele>
        <time>2019-04-18T14:39:52Z</time>
      </trkpt>
      <trkpt lat="47.03892" lon="6.27551">
        <ele>417</ele>
        <time>2019-04-18T14:40:08Z</time>
      </trkpt>
      <trkpt lat="47.03902" lon="6.27556">
        <ele>417</ele>
        <time>2019-04-18T14:40:25Z</time>
      </trkpt>
      <trkpt lat="47.03913" lon="6.27553">
        <ele>417</ele>
        <time>2019-04-18T14:40:31Z</time>
      </trkpt>
      <trkpt lat="47.03921" lon="6.27552">
        <ele>419</ele>
        <time>2019-04-18T14:40:38Z</time>
      </trkpt>
      <trkpt lat="47.0393" lon="6.27541">
        <ele>421</ele>
        <time>2019-04-18T14:40:50Z</time>
      </trkpt>
      <trkpt lat="47.03937" lon="6.27532">
        <ele>421</ele>
        <time>2019-04-18T14:40:59Z</time>
      </trkpt>
      <trkpt lat="47.03961" lon="6.2752">
        <ele>421</ele>
        <time>2019-04-18T14:41:27Z</time>
      </trkpt>
      <trkpt lat="47.03972" lon="6.27521">
        <ele>424</ele>
        <time>2019-04-18T14:41:47Z</time>
      </trkpt>
      <trkpt lat="47.03981" lon="6.27526">
        <ele>425</ele>
        <time>2019-04-18T14:42:05Z</time>
      </trkpt>
      <trkpt lat="47.03985" lon="6.27539">
        <ele>426</ele>
        <time>2019-04-18T14:42:39Z</time>
      </trkpt>
    </trkseg>
  </trk>
</gpx>